<?xml version="1.0" encoding="utf-8"?>
<gpx xmlns:xsi="http://www.w3.org/2001/XMLSchema-instance" xmlns:xsd="http://www.w3.org/2001/XMLSchema" version="1.1" creator="Shapelink.com" xmlns="http://www.topografix.com/GPX/1/1" xmlns:gpxtpx="http://www.garmin.com/xmlschemas/TrackPointExtension/v1">
  <metadata>
    <name>Gåing 6.83 km, 2012-08-16</name>
    <desc></desc>
    <author><name>Mikael Blom</name></author> 
    <time>2012-08-16T15:02:53Z</time>
  </metadata>
  <trk>
    <name>Gåing 6.83 km, 2012-08-16</name>
    <trkseg>
      <trkpt lat="59.9786242" lon="17.7399468">
        <ele>8.78918</ele>
        <time>2012-08-16T15:02:53Z</time>
      </trkpt>
      <trkpt lat="59.978631" lon="17.7397898">
        <ele>12.1538</ele>
        <time>2012-08-16T15:02:57Z</time>
      </trkpt>
      <trkpt lat="59.9786763" lon="17.7397567">
        <ele>14.0764</ele>
        <time>2012-08-16T15:03:00Z</time>
      </trkpt>
      <trkpt lat="59.9787228" lon="17.7396921">
        <ele>15.0377</ele>
        <time>2012-08-16T15:03:03Z</time>
      </trkpt>
      <trkpt lat="59.978776" lon="17.739518">
        <ele>15.999</ele>
        <time>2012-08-16T15:03:09Z</time>
      </trkpt>
      <trkpt lat="59.9787983" lon="17.7393894">
        <ele>16.4797</ele>
        <time>2012-08-16T15:03:12Z</time>
      </trkpt>
      <trkpt lat="59.9788149" lon="17.7393437">
        <ele>17.4412</ele>
        <time>2012-08-16T15:03:14Z</time>
      </trkpt>
      <trkpt lat="59.978889" lon="17.7392336">
        <ele>17.9218</ele>
        <time>2012-08-16T15:03:20Z</time>
      </trkpt>
      <trkpt lat="59.9789426" lon="17.7391844">
        <ele>18.4023</ele>
        <time>2012-08-16T15:03:24Z</time>
      </trkpt>
      <trkpt lat="59.9789965" lon="17.7391754">
        <ele>18.4023</ele>
        <time>2012-08-16T15:03:28Z</time>
      </trkpt>
      <trkpt lat="59.9791205" lon="17.7391419">
        <ele>17.9218</ele>
        <time>2012-08-16T15:03:39Z</time>
      </trkpt>
      <trkpt lat="59.9791552" lon="17.7391433">
        <ele>17.4412</ele>
        <time>2012-08-16T15:03:42Z</time>
      </trkpt>
      <trkpt lat="59.9791982" lon="17.7390989">
        <ele>17.4412</ele>
        <time>2012-08-16T15:03:46Z</time>
      </trkpt>
      <trkpt lat="59.9792878" lon="17.7390412">
        <ele>18.8831</ele>
        <time>2012-08-16T15:03:53Z</time>
      </trkpt>
      <trkpt lat="59.9793606" lon="17.7390222">
        <ele>18.8831</ele>
        <time>2012-08-16T15:03:58Z</time>
      </trkpt>
      <trkpt lat="59.9793962" lon="17.739027">
        <ele>19.3638</ele>
        <time>2012-08-16T15:04:00Z</time>
      </trkpt>
      <trkpt lat="59.979523" lon="17.7389374">
        <ele>19.8444</ele>
        <time>2012-08-16T15:04:08Z</time>
      </trkpt>
      <trkpt lat="59.9796271" lon="17.7388704">
        <ele>19.8444</ele>
        <time>2012-08-16T15:04:15Z</time>
      </trkpt>
      <trkpt lat="59.9797321" lon="17.7388473">
        <ele>18.8831</ele>
        <time>2012-08-16T15:04:22Z</time>
      </trkpt>
      <trkpt lat="59.9798275" lon="17.7388004">
        <ele>18.4023</ele>
        <time>2012-08-16T15:04:28Z</time>
      </trkpt>
      <trkpt lat="59.9798834" lon="17.7388226">
        <ele>17.4412</ele>
        <time>2012-08-16T15:04:33Z</time>
      </trkpt>
      <trkpt lat="59.9799183" lon="17.7388271">
        <ele>17.4412</ele>
        <time>2012-08-16T15:04:36Z</time>
      </trkpt>
      <trkpt lat="59.9799829" lon="17.7388498">
        <ele>17.9218</ele>
        <time>2012-08-16T15:04:40Z</time>
      </trkpt>
      <trkpt lat="59.9800327" lon="17.7388964">
        <ele>17.9218</ele>
        <time>2012-08-16T15:04:44Z</time>
      </trkpt>
      <trkpt lat="59.9800838" lon="17.7389274">
        <ele>17.9218</ele>
        <time>2012-08-16T15:04:48Z</time>
      </trkpt>
      <trkpt lat="59.9801385" lon="17.7388912">
        <ele>17.9218</ele>
        <time>2012-08-16T15:04:51Z</time>
      </trkpt>
      <trkpt lat="59.9802145" lon="17.7388709">
        <ele>17.9218</ele>
        <time>2012-08-16T15:04:55Z</time>
      </trkpt>
      <trkpt lat="59.9802694" lon="17.7388674">
        <ele>17.9218</ele>
        <time>2012-08-16T15:05:00Z</time>
      </trkpt>
      <trkpt lat="59.9803554" lon="17.7388275">
        <ele>17.9218</ele>
        <time>2012-08-16T15:05:05Z</time>
      </trkpt>
      <trkpt lat="59.9804285" lon="17.7387798">
        <ele>17.4412</ele>
        <time>2012-08-16T15:05:10Z</time>
      </trkpt>
      <trkpt lat="59.98052" lon="17.7387513">
        <ele>17.4412</ele>
        <time>2012-08-16T15:05:15Z</time>
      </trkpt>
      <trkpt lat="59.9805568" lon="17.7387427">
        <ele>17.4412</ele>
        <time>2012-08-16T15:05:18Z</time>
      </trkpt>
      <trkpt lat="59.9806044" lon="17.7387321">
        <ele>17.4412</ele>
        <time>2012-08-16T15:05:22Z</time>
      </trkpt>
      <trkpt lat="59.9807356" lon="17.7386808">
        <ele>17.4412</ele>
        <time>2012-08-16T15:05:30Z</time>
      </trkpt>
      <trkpt lat="59.9808061" lon="17.7386835">
        <ele>17.4412</ele>
        <time>2012-08-16T15:05:35Z</time>
      </trkpt>
      <trkpt lat="59.9809077" lon="17.7385711">
        <ele>17.4412</ele>
        <time>2012-08-16T15:05:41Z</time>
      </trkpt>
      <trkpt lat="59.9809417" lon="17.7385127">
        <ele>16.9604</ele>
        <time>2012-08-16T15:05:45Z</time>
      </trkpt>
      <trkpt lat="59.9809442" lon="17.7384898">
        <ele>16.9604</ele>
        <time>2012-08-16T15:05:46Z</time>
      </trkpt>
      <trkpt lat="59.9809821" lon="17.738251">
        <ele>16.4797</ele>
        <time>2012-08-16T15:05:52Z</time>
      </trkpt>
      <trkpt lat="59.9809935" lon="17.7381716">
        <ele>16.4797</ele>
        <time>2012-08-16T15:05:59Z</time>
      </trkpt>
      <trkpt lat="59.9810025" lon="17.7381606">
        <ele>15.999</ele>
        <time>2012-08-16T15:06:03Z</time>
      </trkpt>
      <trkpt lat="59.9809579" lon="17.7380878">
        <ele>15.999</ele>
        <time>2012-08-16T15:06:08Z</time>
      </trkpt>
      <trkpt lat="59.9808955" lon="17.7378858">
        <ele>15.0377</ele>
        <time>2012-08-16T15:06:18Z</time>
      </trkpt>
      <trkpt lat="59.9808782" lon="17.7377735">
        <ele>14.557</ele>
        <time>2012-08-16T15:06:22Z</time>
      </trkpt>
      <trkpt lat="59.9808865" lon="17.7376288">
        <ele>14.557</ele>
        <time>2012-08-16T15:06:27Z</time>
      </trkpt>
      <trkpt lat="59.9808763" lon="17.7375878">
        <ele>15.0377</ele>
        <time>2012-08-16T15:06:29Z</time>
      </trkpt>
      <trkpt lat="59.9808108" lon="17.7375176">
        <ele>15.0377</ele>
        <time>2012-08-16T15:06:35Z</time>
      </trkpt>
      <trkpt lat="59.9808191" lon="17.7373407">
        <ele>15.0377</ele>
        <time>2012-08-16T15:06:40Z</time>
      </trkpt>
      <trkpt lat="59.9808528" lon="17.7372411">
        <ele>15.0377</ele>
        <time>2012-08-16T15:06:44Z</time>
      </trkpt>
      <trkpt lat="59.9808486" lon="17.7371567">
        <ele>15.5184</ele>
        <time>2012-08-16T15:06:48Z</time>
      </trkpt>
      <trkpt lat="59.9808355" lon="17.7370099">
        <ele>15.5184</ele>
        <time>2012-08-16T15:06:53Z</time>
      </trkpt>
      <trkpt lat="59.9808853" lon="17.7369107">
        <ele>15.999</ele>
        <time>2012-08-16T15:06:59Z</time>
      </trkpt>
      <trkpt lat="59.9809628" lon="17.736785">
        <ele>15.999</ele>
        <time>2012-08-16T15:07:04Z</time>
      </trkpt>
      <trkpt lat="59.9810123" lon="17.7367309">
        <ele>16.4797</ele>
        <time>2012-08-16T15:07:08Z</time>
      </trkpt>
      <trkpt lat="59.9810371" lon="17.7366662">
        <ele>16.9604</ele>
        <time>2012-08-16T15:07:13Z</time>
      </trkpt>
      <trkpt lat="59.9810226" lon="17.736547">
        <ele>17.4412</ele>
        <time>2012-08-16T15:07:19Z</time>
      </trkpt>
      <trkpt lat="59.9810271" lon="17.7364266">
        <ele>17.4412</ele>
        <time>2012-08-16T15:07:24Z</time>
      </trkpt>
      <trkpt lat="59.9810475" lon="17.7362502">
        <ele>18.8831</ele>
        <time>2012-08-16T15:07:32Z</time>
      </trkpt>
      <trkpt lat="59.9810884" lon="17.7362518">
        <ele>18.8831</ele>
        <time>2012-08-16T15:07:39Z</time>
      </trkpt>
      <trkpt lat="59.9811656" lon="17.7362541">
        <ele>19.8444</ele>
        <time>2012-08-16T15:07:44Z</time>
      </trkpt>
      <trkpt lat="59.9811954" lon="17.7361431">
        <ele>21.2864</ele>
        <time>2012-08-16T15:07:52Z</time>
      </trkpt>
      <trkpt lat="59.9812635" lon="17.7361364">
        <ele>21.2864</ele>
        <time>2012-08-16T15:07:57Z</time>
      </trkpt>
      <trkpt lat="59.9813494" lon="17.7360357">
        <ele>21.2864</ele>
        <time>2012-08-16T15:08:02Z</time>
      </trkpt>
      <trkpt lat="59.9813914" lon="17.73595">
        <ele>21.767</ele>
        <time>2012-08-16T15:08:07Z</time>
      </trkpt>
      <trkpt lat="59.9814525" lon="17.7357793">
        <ele>22.7283</ele>
        <time>2012-08-16T15:08:13Z</time>
      </trkpt>
      <trkpt lat="59.9814069" lon="17.7357479">
        <ele>22.7283</ele>
        <time>2012-08-16T15:08:17Z</time>
      </trkpt>
      <trkpt lat="59.9814316" lon="17.7356573">
        <ele>24.1703</ele>
        <time>2012-08-16T15:08:24Z</time>
      </trkpt>
      <trkpt lat="59.9814598" lon="17.7355897">
        <ele>22.7283</ele>
        <time>2012-08-16T15:08:29Z</time>
      </trkpt>
      <trkpt lat="59.9815148" lon="17.7355198">
        <ele>28.9769</ele>
        <time>2012-08-16T15:08:35Z</time>
      </trkpt>
      <trkpt lat="59.9815796" lon="17.7354972">
        <ele>33.7834</ele>
        <time>2012-08-16T15:08:41Z</time>
      </trkpt>
      <trkpt lat="59.9816259" lon="17.7355169">
        <ele>34.7449</ele>
        <time>2012-08-16T15:08:47Z</time>
      </trkpt>
      <trkpt lat="59.9816876" lon="17.7355252">
        <ele>37.6287</ele>
        <time>2012-08-16T15:08:54Z</time>
      </trkpt>
      <trkpt lat="59.9817077" lon="17.7355213">
        <ele>34.7449</ele>
        <time>2012-08-16T15:08:58Z</time>
      </trkpt>
      <trkpt lat="59.9817293" lon="17.7353313">
        <ele>38.1094</ele>
        <time>2012-08-16T15:09:04Z</time>
      </trkpt>
      <trkpt lat="59.9817432" lon="17.7352344">
        <ele>41.474</ele>
        <time>2012-08-16T15:09:08Z</time>
      </trkpt>
      <trkpt lat="59.9817665" lon="17.7350925">
        <ele>42.916</ele>
        <time>2012-08-16T15:09:15Z</time>
      </trkpt>
      <trkpt lat="59.9817147" lon="17.7350702">
        <ele>32.8223</ele>
        <time>2012-08-16T15:09:29Z</time>
      </trkpt>
      <trkpt lat="59.981753" lon="17.7350173">
        <ele>39.5513</ele>
        <time>2012-08-16T15:09:47Z</time>
      </trkpt>
      <trkpt lat="59.9817801" lon="17.7352024">
        <ele>44.358</ele>
        <time>2012-08-16T15:09:53Z</time>
      </trkpt>
      <trkpt lat="59.9818131" lon="17.7352984">
        <ele>50.126</ele>
        <time>2012-08-16T15:09:58Z</time>
      </trkpt>
      <trkpt lat="59.9818388" lon="17.7353169">
        <ele>49.1646</ele>
        <time>2012-08-16T15:10:02Z</time>
      </trkpt>
      <trkpt lat="59.9818453" lon="17.7353525">
        <ele>42.916</ele>
        <time>2012-08-16T15:10:07Z</time>
      </trkpt>
      <trkpt lat="59.9818509" lon="17.7353579">
        <ele>40.9934</ele>
        <time>2012-08-16T15:10:09Z</time>
      </trkpt>
      <trkpt lat="59.9819341" lon="17.735348">
        <ele>40.0321</ele>
        <time>2012-08-16T15:10:16Z</time>
      </trkpt>
      <trkpt lat="59.981955" lon="17.7352934">
        <ele>41.474</ele>
        <time>2012-08-16T15:10:18Z</time>
      </trkpt>
      <trkpt lat="59.9819949" lon="17.7351734">
        <ele>40.5128</ele>
        <time>2012-08-16T15:10:24Z</time>
      </trkpt>
      <trkpt lat="59.9820342" lon="17.7351796">
        <ele>38.1094</ele>
        <time>2012-08-16T15:10:28Z</time>
      </trkpt>
      <trkpt lat="59.9821063" lon="17.735281">
        <ele>44.358</ele>
        <time>2012-08-16T15:10:34Z</time>
      </trkpt>
      <trkpt lat="59.982198" lon="17.7352447">
        <ele>52.0486</ele>
        <time>2012-08-16T15:10:39Z</time>
      </trkpt>
      <trkpt lat="59.982211" lon="17.7351351">
        <ele>54.9324</ele>
        <time>2012-08-16T15:10:43Z</time>
      </trkpt>
      <trkpt lat="59.9822446" lon="17.7350479">
        <ele>57.3358</ele>
        <time>2012-08-16T15:10:47Z</time>
      </trkpt>
      <trkpt lat="59.9822694" lon="17.7349896">
        <ele>58.7777</ele>
        <time>2012-08-16T15:10:52Z</time>
      </trkpt>
      <trkpt lat="59.9822665" lon="17.7350339">
        <ele>54.9324</ele>
        <time>2012-08-16T15:10:56Z</time>
      </trkpt>
      <trkpt lat="59.9823309" lon="17.7349756">
        <ele>61.181</ele>
        <time>2012-08-16T15:11:02Z</time>
      </trkpt>
      <trkpt lat="59.9823465" lon="17.7349093">
        <ele>61.181</ele>
        <time>2012-08-16T15:11:06Z</time>
      </trkpt>
      <trkpt lat="59.9823579" lon="17.7348624">
        <ele>53.0098</ele>
        <time>2012-08-16T15:11:17Z</time>
      </trkpt>
      <trkpt lat="59.982343" lon="17.7348907">
        <ele>47.7225</ele>
        <time>2012-08-16T15:11:23Z</time>
      </trkpt>
      <trkpt lat="59.982373" lon="17.7348947">
        <ele>48.2034</ele>
        <time>2012-08-16T15:11:28Z</time>
      </trkpt>
      <trkpt lat="59.9824741" lon="17.7349051">
        <ele>36.1868</ele>
        <time>2012-08-16T15:11:41Z</time>
      </trkpt>
      <trkpt lat="59.9825419" lon="17.7351884">
        <ele>35.7061</ele>
        <time>2012-08-16T15:11:57Z</time>
      </trkpt>
      <trkpt lat="59.9826522" lon="17.7352952">
        <ele>42.916</ele>
        <time>2012-08-16T15:12:07Z</time>
      </trkpt>
      <trkpt lat="59.9827378" lon="17.7353884">
        <ele>56.3745</ele>
        <time>2012-08-16T15:12:12Z</time>
      </trkpt>
      <trkpt lat="59.9827652" lon="17.7354235">
        <ele>59.2584</ele>
        <time>2012-08-16T15:12:16Z</time>
      </trkpt>
      <trkpt lat="59.9827034" lon="17.7355521">
        <ele>53.4905</ele>
        <time>2012-08-16T15:12:22Z</time>
      </trkpt>
      <trkpt lat="59.9826917" lon="17.7355804">
        <ele>50.126</ele>
        <time>2012-08-16T15:12:23Z</time>
      </trkpt>
      <trkpt lat="59.9827304" lon="17.7356778">
        <ele>50.126</ele>
        <time>2012-08-16T15:12:27Z</time>
      </trkpt>
      <trkpt lat="59.9828536" lon="17.7357992">
        <ele>64.0651</ele>
        <time>2012-08-16T15:12:35Z</time>
      </trkpt>
      <trkpt lat="59.9828059" lon="17.7359028">
        <ele>56.8551</ele>
        <time>2012-08-16T15:12:40Z</time>
      </trkpt>
      <trkpt lat="59.9826456" lon="17.7362971">
        <ele>40.5128</ele>
        <time>2012-08-16T15:12:58Z</time>
      </trkpt>
      <trkpt lat="59.9826212" lon="17.7363788">
        <ele>36.6675</ele>
        <time>2012-08-16T15:13:03Z</time>
      </trkpt>
      <trkpt lat="59.9825776" lon="17.7363983">
        <ele>35.7061</ele>
        <time>2012-08-16T15:13:08Z</time>
      </trkpt>
      <trkpt lat="59.9825571" lon="17.7364524">
        <ele>40.9934</ele>
        <time>2012-08-16T15:13:16Z</time>
      </trkpt>
      <trkpt lat="59.9824663" lon="17.7363997">
        <ele>46.2806</ele>
        <time>2012-08-16T15:13:22Z</time>
      </trkpt>
      <trkpt lat="59.9824094" lon="17.7362948">
        <ele>61.181</ele>
        <time>2012-08-16T15:13:33Z</time>
      </trkpt>
      <trkpt lat="59.982464" lon="17.7364073">
        <ele>72.7169</ele>
        <time>2012-08-16T15:13:41Z</time>
      </trkpt>
      <trkpt lat="59.9824627" lon="17.7365995">
        <ele>63.5844</ele>
        <time>2012-08-16T15:13:47Z</time>
      </trkpt>
      <trkpt lat="59.9824414" lon="17.7367253">
        <ele>54.9324</ele>
        <time>2012-08-16T15:13:51Z</time>
      </trkpt>
      <trkpt lat="59.9824828" lon="17.7368275">
        <ele>54.9324</ele>
        <time>2012-08-16T15:13:56Z</time>
      </trkpt>
      <trkpt lat="59.982504" lon="17.736905">
        <ele>58.2971</ele>
        <time>2012-08-16T15:14:02Z</time>
      </trkpt>
      <trkpt lat="59.9824185" lon="17.7371176">
        <ele>53.0098</ele>
        <time>2012-08-16T15:14:13Z</time>
      </trkpt>
      <trkpt lat="59.9823597" lon="17.7372981">
        <ele>45.7999</ele>
        <time>2012-08-16T15:14:19Z</time>
      </trkpt>
      <trkpt lat="59.9823715" lon="17.7373807">
        <ele>47.7225</ele>
        <time>2012-08-16T15:14:23Z</time>
      </trkpt>
      <trkpt lat="59.9824181" lon="17.7375418">
        <ele>48.2034</ele>
        <time>2012-08-16T15:14:34Z</time>
      </trkpt>
      <trkpt lat="59.9825019" lon="17.7377038">
        <ele>48.684</ele>
        <time>2012-08-16T15:14:45Z</time>
      </trkpt>
      <trkpt lat="59.9825008" lon="17.7378003">
        <ele>48.2034</ele>
        <time>2012-08-16T15:14:49Z</time>
      </trkpt>
      <trkpt lat="59.9824975" lon="17.7378718">
        <ele>42.4354</ele>
        <time>2012-08-16T15:14:54Z</time>
      </trkpt>
      <trkpt lat="59.9824534" lon="17.7379141">
        <ele>37.6287</ele>
        <time>2012-08-16T15:14:56Z</time>
      </trkpt>
      <trkpt lat="59.982487" lon="17.7380009">
        <ele>41.474</ele>
        <time>2012-08-16T15:15:01Z</time>
      </trkpt>
      <trkpt lat="59.9824383" lon="17.7381795">
        <ele>32.3416</ele>
        <time>2012-08-16T15:15:06Z</time>
      </trkpt>
      <trkpt lat="59.9824469" lon="17.7381996">
        <ele>31.8607</ele>
        <time>2012-08-16T15:15:07Z</time>
      </trkpt>
      <trkpt lat="59.9825311" lon="17.7382536">
        <ele>30.8995</ele>
        <time>2012-08-16T15:15:12Z</time>
      </trkpt>
      <trkpt lat="59.9826625" lon="17.738194">
        <ele>36.1868</ele>
        <time>2012-08-16T15:15:18Z</time>
      </trkpt>
      <trkpt lat="59.9827477" lon="17.7382098">
        <ele>35.7061</ele>
        <time>2012-08-16T15:15:25Z</time>
      </trkpt>
      <trkpt lat="59.9828528" lon="17.7382142">
        <ele>40.0321</ele>
        <time>2012-08-16T15:15:31Z</time>
      </trkpt>
      <trkpt lat="59.9829276" lon="17.7381935">
        <ele>43.8773</ele>
        <time>2012-08-16T15:15:35Z</time>
      </trkpt>
      <trkpt lat="59.9830207" lon="17.7381827">
        <ele>48.684</ele>
        <time>2012-08-16T15:15:41Z</time>
      </trkpt>
      <trkpt lat="59.9831018" lon="17.7381674">
        <ele>51.5679</ele>
        <time>2012-08-16T15:15:46Z</time>
      </trkpt>
      <trkpt lat="59.9831846" lon="17.7381572">
        <ele>53.0098</ele>
        <time>2012-08-16T15:15:51Z</time>
      </trkpt>
      <trkpt lat="59.9832806" lon="17.7381489">
        <ele>53.0098</ele>
        <time>2012-08-16T15:15:56Z</time>
      </trkpt>
      <trkpt lat="59.9833439" lon="17.7381411">
        <ele>53.0098</ele>
        <time>2012-08-16T15:16:00Z</time>
      </trkpt>
      <trkpt lat="59.983408" lon="17.7381567">
        <ele>50.6066</ele>
        <time>2012-08-16T15:16:06Z</time>
      </trkpt>
      <trkpt lat="59.9834681" lon="17.7381363">
        <ele>51.5679</ele>
        <time>2012-08-16T15:16:10Z</time>
      </trkpt>
      <trkpt lat="59.9835662" lon="17.7381193">
        <ele>50.6066</ele>
        <time>2012-08-16T15:16:17Z</time>
      </trkpt>
      <trkpt lat="59.9836572" lon="17.7380899">
        <ele>52.0486</ele>
        <time>2012-08-16T15:16:22Z</time>
      </trkpt>
      <trkpt lat="59.9836848" lon="17.7380897">
        <ele>52.5292</ele>
        <time>2012-08-16T15:16:23Z</time>
      </trkpt>
      <trkpt lat="59.9837238" lon="17.7380694">
        <ele>48.2034</ele>
        <time>2012-08-16T15:16:28Z</time>
      </trkpt>
      <trkpt lat="59.9837897" lon="17.7380962">
        <ele>45.7999</ele>
        <time>2012-08-16T15:16:34Z</time>
      </trkpt>
      <trkpt lat="59.9838526" lon="17.7380763">
        <ele>42.4354</ele>
        <time>2012-08-16T15:16:40Z</time>
      </trkpt>
      <trkpt lat="59.983951" lon="17.738043">
        <ele>47.2418</ele>
        <time>2012-08-16T15:16:44Z</time>
      </trkpt>
      <trkpt lat="59.984036" lon="17.7380519">
        <ele>46.7612</ele>
        <time>2012-08-16T15:16:51Z</time>
      </trkpt>
      <trkpt lat="59.984116" lon="17.7380313">
        <ele>44.358</ele>
        <time>2012-08-16T15:16:57Z</time>
      </trkpt>
      <trkpt lat="59.9841867" lon="17.7380495">
        <ele>45.3192</ele>
        <time>2012-08-16T15:17:02Z</time>
      </trkpt>
      <trkpt lat="59.984261" lon="17.7380553">
        <ele>44.8386</ele>
        <time>2012-08-16T15:17:07Z</time>
      </trkpt>
      <trkpt lat="59.9843677" lon="17.7380575">
        <ele>48.2034</ele>
        <time>2012-08-16T15:17:13Z</time>
      </trkpt>
      <trkpt lat="59.9844981" lon="17.7380742">
        <ele>53.0098</ele>
        <time>2012-08-16T15:17:19Z</time>
      </trkpt>
      <trkpt lat="59.9846638" lon="17.7380935">
        <ele>64.0651</ele>
        <time>2012-08-16T15:17:26Z</time>
      </trkpt>
      <trkpt lat="59.9847393" lon="17.7381117">
        <ele>62.6229</ele>
        <time>2012-08-16T15:17:32Z</time>
      </trkpt>
      <trkpt lat="59.9848129" lon="17.7381247">
        <ele>61.6617</ele>
        <time>2012-08-16T15:17:37Z</time>
      </trkpt>
      <trkpt lat="59.9848772" lon="17.7381369">
        <ele>58.7777</ele>
        <time>2012-08-16T15:17:43Z</time>
      </trkpt>
      <trkpt lat="59.984959" lon="17.7381702">
        <ele>53.9712</ele>
        <time>2012-08-16T15:17:51Z</time>
      </trkpt>
      <trkpt lat="59.9849833" lon="17.7382017">
        <ele>49.1646</ele>
        <time>2012-08-16T15:17:55Z</time>
      </trkpt>
      <trkpt lat="59.9850313" lon="17.7382235">
        <ele>46.7612</ele>
        <time>2012-08-16T15:18:00Z</time>
      </trkpt>
      <trkpt lat="59.9850846" lon="17.7381721">
        <ele>46.7612</ele>
        <time>2012-08-16T15:18:04Z</time>
      </trkpt>
      <trkpt lat="59.9851499" lon="17.7381914">
        <ele>47.2418</ele>
        <time>2012-08-16T15:18:08Z</time>
      </trkpt>
      <trkpt lat="59.9852597" lon="17.7382166">
        <ele>51.0872</ele>
        <time>2012-08-16T15:18:13Z</time>
      </trkpt>
      <trkpt lat="59.9853304" lon="17.7382458">
        <ele>50.6066</ele>
        <time>2012-08-16T15:18:18Z</time>
      </trkpt>
      <trkpt lat="59.9853749" lon="17.7382959">
        <ele>45.7999</ele>
        <time>2012-08-16T15:18:24Z</time>
      </trkpt>
      <trkpt lat="59.9854659" lon="17.7383551">
        <ele>48.684</ele>
        <time>2012-08-16T15:18:29Z</time>
      </trkpt>
      <trkpt lat="59.9854962" lon="17.7383797">
        <ele>45.3192</ele>
        <time>2012-08-16T15:18:33Z</time>
      </trkpt>
      <trkpt lat="59.9855981" lon="17.7383797">
        <ele>46.7612</ele>
        <time>2012-08-16T15:18:38Z</time>
      </trkpt>
      <trkpt lat="59.9856284" lon="17.738394">
        <ele>47.7225</ele>
        <time>2012-08-16T15:18:40Z</time>
      </trkpt>
      <trkpt lat="59.9857461" lon="17.738435">
        <ele>50.126</ele>
        <time>2012-08-16T15:18:47Z</time>
      </trkpt>
      <trkpt lat="59.985828" lon="17.7384918">
        <ele>47.7225</ele>
        <time>2012-08-16T15:18:55Z</time>
      </trkpt>
      <trkpt lat="59.985881" lon="17.7385631">
        <ele>44.358</ele>
        <time>2012-08-16T15:19:01Z</time>
      </trkpt>
      <trkpt lat="59.9859568" lon="17.7386146">
        <ele>40.9934</ele>
        <time>2012-08-16T15:19:08Z</time>
      </trkpt>
      <trkpt lat="59.9860658" lon="17.7386705">
        <ele>44.8386</ele>
        <time>2012-08-16T15:19:14Z</time>
      </trkpt>
      <trkpt lat="59.9861846" lon="17.7387001">
        <ele>49.6453</ele>
        <time>2012-08-16T15:19:20Z</time>
      </trkpt>
      <trkpt lat="59.9862502" lon="17.7387021">
        <ele>51.0872</ele>
        <time>2012-08-16T15:19:26Z</time>
      </trkpt>
      <trkpt lat="59.9862645" lon="17.73864">
        <ele>53.0098</ele>
        <time>2012-08-16T15:19:28Z</time>
      </trkpt>
      <trkpt lat="59.9862846" lon="17.7385726">
        <ele>53.0098</ele>
        <time>2012-08-16T15:19:30Z</time>
      </trkpt>
      <trkpt lat="59.986287" lon="17.738395">
        <ele>54.4518</ele>
        <time>2012-08-16T15:19:36Z</time>
      </trkpt>
      <trkpt lat="59.9862953" lon="17.738296">
        <ele>56.3745</ele>
        <time>2012-08-16T15:19:40Z</time>
      </trkpt>
      <trkpt lat="59.9863524" lon="17.738287">
        <ele>56.3745</ele>
        <time>2012-08-16T15:19:44Z</time>
      </trkpt>
      <trkpt lat="59.9863966" lon="17.7382908">
        <ele>54.4518</ele>
        <time>2012-08-16T15:19:48Z</time>
      </trkpt>
      <trkpt lat="59.9864482" lon="17.7383027">
        <ele>53.0098</ele>
        <time>2012-08-16T15:19:52Z</time>
      </trkpt>
      <trkpt lat="59.9865037" lon="17.7382176">
        <ele>52.0486</ele>
        <time>2012-08-16T15:19:57Z</time>
      </trkpt>
      <trkpt lat="59.9865229" lon="17.738195">
        <ele>53.0098</ele>
        <time>2012-08-16T15:19:59Z</time>
      </trkpt>
      <trkpt lat="59.9865607" lon="17.7380855">
        <ele>54.4518</ele>
        <time>2012-08-16T15:20:04Z</time>
      </trkpt>
      <trkpt lat="59.9865885" lon="17.7379373">
        <ele>57.8165</ele>
        <time>2012-08-16T15:20:09Z</time>
      </trkpt>
      <trkpt lat="59.986553" lon="17.7378123">
        <ele>65.0264</ele>
        <time>2012-08-16T15:20:16Z</time>
      </trkpt>
      <trkpt lat="59.9865477" lon="17.7377091">
        <ele>65.0264</ele>
        <time>2012-08-16T15:20:25Z</time>
      </trkpt>
      <trkpt lat="59.9866073" lon="17.7375647">
        <ele>66.4683</ele>
        <time>2012-08-16T15:20:33Z</time>
      </trkpt>
      <trkpt lat="59.9863851" lon="17.7376349">
        <ele>48.2034</ele>
        <time>2012-08-16T15:20:46Z</time>
      </trkpt>
      <trkpt lat="59.9863269" lon="17.7377127">
        <ele>44.8386</ele>
        <time>2012-08-16T15:20:50Z</time>
      </trkpt>
      <trkpt lat="59.9862623" lon="17.737706">
        <ele>42.4354</ele>
        <time>2012-08-16T15:20:54Z</time>
      </trkpt>
      <trkpt lat="59.9862348" lon="17.7376615">
        <ele>45.7999</ele>
        <time>2012-08-16T15:20:58Z</time>
      </trkpt>
      <trkpt lat="59.9862673" lon="17.7376475">
        <ele>44.8386</ele>
        <time>2012-08-16T15:21:08Z</time>
      </trkpt>
      <trkpt lat="59.9863845" lon="17.737582">
        <ele>45.3192</ele>
        <time>2012-08-16T15:21:14Z</time>
      </trkpt>
      <trkpt lat="59.9864663" lon="17.7375703">
        <ele>43.8773</ele>
        <time>2012-08-16T15:21:20Z</time>
      </trkpt>
      <trkpt lat="59.9865456" lon="17.7375488">
        <ele>47.2418</ele>
        <time>2012-08-16T15:21:25Z</time>
      </trkpt>
      <trkpt lat="59.9866451" lon="17.7375495">
        <ele>54.4518</ele>
        <time>2012-08-16T15:21:29Z</time>
      </trkpt>
      <trkpt lat="59.9867" lon="17.7374926">
        <ele>57.8165</ele>
        <time>2012-08-16T15:21:33Z</time>
      </trkpt>
      <trkpt lat="59.9867498" lon="17.7375525">
        <ele>57.3358</ele>
        <time>2012-08-16T15:21:38Z</time>
      </trkpt>
      <trkpt lat="59.9867832" lon="17.7375567">
        <ele>57.3358</ele>
        <time>2012-08-16T15:21:40Z</time>
      </trkpt>
      <trkpt lat="59.9868285" lon="17.7376019">
        <ele>47.7225</ele>
        <time>2012-08-16T15:21:47Z</time>
      </trkpt>
      <trkpt lat="59.986883" lon="17.7375599">
        <ele>49.6453</ele>
        <time>2012-08-16T15:21:53Z</time>
      </trkpt>
      <trkpt lat="59.9869602" lon="17.7375808">
        <ele>48.2034</ele>
        <time>2012-08-16T15:21:59Z</time>
      </trkpt>
      <trkpt lat="59.9870091" lon="17.7375417">
        <ele>50.126</ele>
        <time>2012-08-16T15:22:05Z</time>
      </trkpt>
      <trkpt lat="59.9870375" lon="17.7374148">
        <ele>55.8938</ele>
        <time>2012-08-16T15:22:11Z</time>
      </trkpt>
      <trkpt lat="59.9870859" lon="17.7373183">
        <ele>54.4518</ele>
        <time>2012-08-16T15:22:16Z</time>
      </trkpt>
      <trkpt lat="59.9871289" lon="17.7372569">
        <ele>56.8551</ele>
        <time>2012-08-16T15:22:20Z</time>
      </trkpt>
      <trkpt lat="59.9872108" lon="17.7371465">
        <ele>60.7003</ele>
        <time>2012-08-16T15:22:26Z</time>
      </trkpt>
      <trkpt lat="59.9872595" lon="17.7371306">
        <ele>57.8165</ele>
        <time>2012-08-16T15:22:31Z</time>
      </trkpt>
      <trkpt lat="59.9873118" lon="17.737049">
        <ele>61.181</ele>
        <time>2012-08-16T15:22:37Z</time>
      </trkpt>
      <trkpt lat="59.9873278" lon="17.7370251">
        <ele>63.1036</ele>
        <time>2012-08-16T15:22:38Z</time>
      </trkpt>
      <trkpt lat="59.9873594" lon="17.7369645">
        <ele>63.1036</ele>
        <time>2012-08-16T15:22:41Z</time>
      </trkpt>
      <trkpt lat="59.9873967" lon="17.7369939">
        <ele>56.3745</ele>
        <time>2012-08-16T15:22:47Z</time>
      </trkpt>
      <trkpt lat="59.98745" lon="17.7369538">
        <ele>56.8551</ele>
        <time>2012-08-16T15:22:53Z</time>
      </trkpt>
      <trkpt lat="59.9875159" lon="17.7368928">
        <ele>59.7391</ele>
        <time>2012-08-16T15:23:00Z</time>
      </trkpt>
      <trkpt lat="59.9875107" lon="17.7368781">
        <ele>60.2197</ele>
        <time>2012-08-16T15:23:01Z</time>
      </trkpt>
      <trkpt lat="59.9874853" lon="17.7367656">
        <ele>60.2197</ele>
        <time>2012-08-16T15:23:05Z</time>
      </trkpt>
      <trkpt lat="59.9874785" lon="17.7365939">
        <ele>63.1036</ele>
        <time>2012-08-16T15:23:11Z</time>
      </trkpt>
      <trkpt lat="59.9874877" lon="17.7365613">
        <ele>65.9877</ele>
        <time>2012-08-16T15:23:12Z</time>
      </trkpt>
      <trkpt lat="59.987505" lon="17.7364535">
        <ele>65.9877</ele>
        <time>2012-08-16T15:23:17Z</time>
      </trkpt>
      <trkpt lat="59.9875096" lon="17.7363405">
        <ele>72.2362</ele>
        <time>2012-08-16T15:23:23Z</time>
      </trkpt>
      <trkpt lat="59.9874323" lon="17.7363766">
        <ele>67.4297</ele>
        <time>2012-08-16T15:23:29Z</time>
      </trkpt>
      <trkpt lat="59.9874949" lon="17.7361794">
        <ele>70.7942</ele>
        <time>2012-08-16T15:23:35Z</time>
      </trkpt>
      <trkpt lat="59.9875388" lon="17.7360919">
        <ele>72.7169</ele>
        <time>2012-08-16T15:23:39Z</time>
      </trkpt>
      <trkpt lat="59.9875764" lon="17.7360131">
        <ele>73.6782</ele>
        <time>2012-08-16T15:23:43Z</time>
      </trkpt>
      <trkpt lat="59.9876224" lon="17.7359492">
        <ele>70.7942</ele>
        <time>2012-08-16T15:23:48Z</time>
      </trkpt>
      <trkpt lat="59.9876623" lon="17.735893">
        <ele>67.4297</ele>
        <time>2012-08-16T15:23:53Z</time>
      </trkpt>
      <trkpt lat="59.9876899" lon="17.7359247">
        <ele>65.5071</ele>
        <time>2012-08-16T15:23:55Z</time>
      </trkpt>
      <trkpt lat="59.9877462" lon="17.7360388">
        <ele>57.8165</ele>
        <time>2012-08-16T15:24:01Z</time>
      </trkpt>
      <trkpt lat="59.987779" lon="17.7361236">
        <ele>47.7225</ele>
        <time>2012-08-16T15:24:10Z</time>
      </trkpt>
      <trkpt lat="59.9878164" lon="17.735993">
        <ele>53.4905</ele>
        <time>2012-08-16T15:24:15Z</time>
      </trkpt>
      <trkpt lat="59.9878441" lon="17.7359624">
        <ele>54.4518</ele>
        <time>2012-08-16T15:24:17Z</time>
      </trkpt>
      <trkpt lat="59.9878807" lon="17.735939">
        <ele>52.0486</ele>
        <time>2012-08-16T15:24:22Z</time>
      </trkpt>
      <trkpt lat="59.9879084" lon="17.7359867">
        <ele>52.0486</ele>
        <time>2012-08-16T15:24:28Z</time>
      </trkpt>
      <trkpt lat="59.9879286" lon="17.7359924">
        <ele>53.9712</ele>
        <time>2012-08-16T15:24:29Z</time>
      </trkpt>
      <trkpt lat="59.9879544" lon="17.7360685">
        <ele>52.5292</ele>
        <time>2012-08-16T15:24:33Z</time>
      </trkpt>
      <trkpt lat="59.9879975" lon="17.736224">
        <ele>57.3358</ele>
        <time>2012-08-16T15:24:39Z</time>
      </trkpt>
      <trkpt lat="59.9880205" lon="17.7365503">
        <ele>59.7391</ele>
        <time>2012-08-16T15:24:59Z</time>
      </trkpt>
      <trkpt lat="59.9880318" lon="17.7366734">
        <ele>59.7391</ele>
        <time>2012-08-16T15:25:08Z</time>
      </trkpt>
      <trkpt lat="59.9880431" lon="17.7368409">
        <ele>57.8165</ele>
        <time>2012-08-16T15:25:18Z</time>
      </trkpt>
      <trkpt lat="59.9881415" lon="17.7369057">
        <ele>53.9712</ele>
        <time>2012-08-16T15:25:33Z</time>
      </trkpt>
      <trkpt lat="59.9882504" lon="17.7369207">
        <ele>53.0098</ele>
        <time>2012-08-16T15:25:42Z</time>
      </trkpt>
      <trkpt lat="59.9883263" lon="17.737065">
        <ele>55.8938</ele>
        <time>2012-08-16T15:25:52Z</time>
      </trkpt>
      <trkpt lat="59.9883649" lon="17.7372156">
        <ele>55.4131</ele>
        <time>2012-08-16T15:25:59Z</time>
      </trkpt>
      <trkpt lat="59.988426" lon="17.7373002">
        <ele>58.2971</ele>
        <time>2012-08-16T15:26:06Z</time>
      </trkpt>
      <trkpt lat="59.988467" lon="17.737331">
        <ele>59.7391</ele>
        <time>2012-08-16T15:26:09Z</time>
      </trkpt>
      <trkpt lat="59.9885263" lon="17.7374228">
        <ele>66.4683</ele>
        <time>2012-08-16T15:26:14Z</time>
      </trkpt>
      <trkpt lat="59.9885515" lon="17.7374879">
        <ele>65.5071</ele>
        <time>2012-08-16T15:26:23Z</time>
      </trkpt>
      <trkpt lat="59.9885768" lon="17.737703">
        <ele>67.4297</ele>
        <time>2012-08-16T15:26:33Z</time>
      </trkpt>
      <trkpt lat="59.9886159" lon="17.7378095">
        <ele>71.7555</ele>
        <time>2012-08-16T15:26:38Z</time>
      </trkpt>
      <trkpt lat="59.9886682" lon="17.7378863">
        <ele>78.9655</ele>
        <time>2012-08-16T15:26:42Z</time>
      </trkpt>
      <trkpt lat="59.9886705" lon="17.7380586">
        <ele>63.5844</ele>
        <time>2012-08-16T15:27:01Z</time>
      </trkpt>
      <trkpt lat="59.988643" lon="17.737968">
        <ele>54.9324</ele>
        <time>2012-08-16T15:27:11Z</time>
      </trkpt>
      <trkpt lat="59.9886818" lon="17.7379691">
        <ele>51.5679</ele>
        <time>2012-08-16T15:27:17Z</time>
      </trkpt>
      <trkpt lat="59.9887265" lon="17.7380219">
        <ele>49.6453</ele>
        <time>2012-08-16T15:27:22Z</time>
      </trkpt>
      <trkpt lat="59.9888617" lon="17.7380883">
        <ele>48.684</ele>
        <time>2012-08-16T15:27:42Z</time>
      </trkpt>
      <trkpt lat="59.9888965" lon="17.7380598">
        <ele>47.2418</ele>
        <time>2012-08-16T15:27:46Z</time>
      </trkpt>
      <trkpt lat="59.9889788" lon="17.7380052">
        <ele>49.6453</ele>
        <time>2012-08-16T15:27:51Z</time>
      </trkpt>
      <trkpt lat="59.9889886" lon="17.7379871">
        <ele>49.6453</ele>
        <time>2012-08-16T15:27:52Z</time>
      </trkpt>
      <trkpt lat="59.9890549" lon="17.7378933">
        <ele>50.6066</ele>
        <time>2012-08-16T15:27:58Z</time>
      </trkpt>
      <trkpt lat="59.9891192" lon="17.7378573">
        <ele>49.1646</ele>
        <time>2012-08-16T15:28:04Z</time>
      </trkpt>
      <trkpt lat="59.9891911" lon="17.7378836">
        <ele>50.6066</ele>
        <time>2012-08-16T15:28:09Z</time>
      </trkpt>
      <trkpt lat="59.9892262" lon="17.737936">
        <ele>51.5679</ele>
        <time>2012-08-16T15:28:14Z</time>
      </trkpt>
      <trkpt lat="59.9892373" lon="17.7379757">
        <ele>49.1646</ele>
        <time>2012-08-16T15:28:18Z</time>
      </trkpt>
      <trkpt lat="59.9892746" lon="17.7379706">
        <ele>50.126</ele>
        <time>2012-08-16T15:28:23Z</time>
      </trkpt>
      <trkpt lat="59.9892769" lon="17.7379493">
        <ele>51.0872</ele>
        <time>2012-08-16T15:28:25Z</time>
      </trkpt>
      <trkpt lat="59.9892938" lon="17.7378773">
        <ele>54.9324</ele>
        <time>2012-08-16T15:28:28Z</time>
      </trkpt>
      <trkpt lat="59.9893309" lon="17.7377796">
        <ele>64.5457</ele>
        <time>2012-08-16T15:28:33Z</time>
      </trkpt>
      <trkpt lat="59.9893906" lon="17.7377677">
        <ele>63.1036</ele>
        <time>2012-08-16T15:28:40Z</time>
      </trkpt>
      <trkpt lat="59.9894212" lon="17.7378185">
        <ele>56.3745</ele>
        <time>2012-08-16T15:28:46Z</time>
      </trkpt>
      <trkpt lat="59.9895065" lon="17.7376678">
        <ele>52.0486</ele>
        <time>2012-08-16T15:29:02Z</time>
      </trkpt>
      <trkpt lat="59.9895527" lon="17.7375872">
        <ele>54.4518</ele>
        <time>2012-08-16T15:29:08Z</time>
      </trkpt>
      <trkpt lat="59.9895941" lon="17.7376136">
        <ele>55.4131</ele>
        <time>2012-08-16T15:29:11Z</time>
      </trkpt>
      <trkpt lat="59.9896801" lon="17.7374957">
        <ele>54.9324</ele>
        <time>2012-08-16T15:29:24Z</time>
      </trkpt>
      <trkpt lat="59.9897195" lon="17.7373687">
        <ele>62.6229</ele>
        <time>2012-08-16T15:29:30Z</time>
      </trkpt>
      <trkpt lat="59.9897476" lon="17.7373273">
        <ele>64.0651</ele>
        <time>2012-08-16T15:29:33Z</time>
      </trkpt>
      <trkpt lat="59.9897791" lon="17.7372907">
        <ele>65.0264</ele>
        <time>2012-08-16T15:29:37Z</time>
      </trkpt>
      <trkpt lat="59.9898111" lon="17.737173">
        <ele>66.4683</ele>
        <time>2012-08-16T15:29:46Z</time>
      </trkpt>
      <trkpt lat="59.9898483" lon="17.7372422">
        <ele>66.4683</ele>
        <time>2012-08-16T15:29:50Z</time>
      </trkpt>
      <trkpt lat="59.9898878" lon="17.7373304">
        <ele>68.3909</ele>
        <time>2012-08-16T15:29:57Z</time>
      </trkpt>
      <trkpt lat="59.9899302" lon="17.7373615">
        <ele>67.9103</ele>
        <time>2012-08-16T15:30:03Z</time>
      </trkpt>
      <trkpt lat="59.9899339" lon="17.7373769">
        <ele>56.8551</ele>
        <time>2012-08-16T15:30:09Z</time>
      </trkpt>
      <trkpt lat="59.9899772" lon="17.7374391">
        <ele>49.1646</ele>
        <time>2012-08-16T15:30:20Z</time>
      </trkpt>
      <trkpt lat="59.9901228" lon="17.7374054">
        <ele>51.0872</ele>
        <time>2012-08-16T15:30:37Z</time>
      </trkpt>
      <trkpt lat="59.990215" lon="17.7374977">
        <ele>59.2584</ele>
        <time>2012-08-16T15:30:43Z</time>
      </trkpt>
      <trkpt lat="59.9902711" lon="17.7375356">
        <ele>65.5071</ele>
        <time>2012-08-16T15:30:47Z</time>
      </trkpt>
      <trkpt lat="59.9902924" lon="17.7375376">
        <ele>65.5071</ele>
        <time>2012-08-16T15:30:54Z</time>
      </trkpt>
      <trkpt lat="59.9902914" lon="17.73752">
        <ele>65.0264</ele>
        <time>2012-08-16T15:30:55Z</time>
      </trkpt>
      <trkpt lat="59.9903057" lon="17.7374594">
        <ele>63.5844</ele>
        <time>2012-08-16T15:31:00Z</time>
      </trkpt>
      <trkpt lat="59.9903188" lon="17.7375113">
        <ele>59.7391</ele>
        <time>2012-08-16T15:31:04Z</time>
      </trkpt>
      <trkpt lat="59.9902951" lon="17.7373382">
        <ele>56.8551</ele>
        <time>2012-08-16T15:31:14Z</time>
      </trkpt>
      <trkpt lat="59.9902929" lon="17.7371689">
        <ele>60.7003</ele>
        <time>2012-08-16T15:31:20Z</time>
      </trkpt>
      <trkpt lat="59.9903549" lon="17.7371378">
        <ele>53.9712</ele>
        <time>2012-08-16T15:31:29Z</time>
      </trkpt>
      <trkpt lat="59.9904498" lon="17.7371806">
        <ele>56.8551</ele>
        <time>2012-08-16T15:31:36Z</time>
      </trkpt>
      <trkpt lat="59.9905318" lon="17.7371931">
        <ele>47.2418</ele>
        <time>2012-08-16T15:31:48Z</time>
      </trkpt>
      <trkpt lat="59.9906002" lon="17.7371149">
        <ele>51.0872</ele>
        <time>2012-08-16T15:31:57Z</time>
      </trkpt>
      <trkpt lat="59.9906047" lon="17.7370524">
        <ele>54.9324</ele>
        <time>2012-08-16T15:32:00Z</time>
      </trkpt>
      <trkpt lat="59.9906046" lon="17.736856">
        <ele>55.8938</ele>
        <time>2012-08-16T15:32:07Z</time>
      </trkpt>
      <trkpt lat="59.9905877" lon="17.736775">
        <ele>58.7777</ele>
        <time>2012-08-16T15:32:13Z</time>
      </trkpt>
      <trkpt lat="59.9905616" lon="17.7366882">
        <ele>59.2584</ele>
        <time>2012-08-16T15:32:17Z</time>
      </trkpt>
      <trkpt lat="59.9905307" lon="17.7364693">
        <ele>68.8716</ele>
        <time>2012-08-16T15:32:23Z</time>
      </trkpt>
      <trkpt lat="59.9905463" lon="17.7363153">
        <ele>77.0428</ele>
        <time>2012-08-16T15:32:27Z</time>
      </trkpt>
      <trkpt lat="59.9905566" lon="17.7361276">
        <ele>79.9266</ele>
        <time>2012-08-16T15:32:33Z</time>
      </trkpt>
      <trkpt lat="59.9905416" lon="17.7360763">
        <ele>78.004</ele>
        <time>2012-08-16T15:32:35Z</time>
      </trkpt>
      <trkpt lat="59.9905383" lon="17.7358888">
        <ele>76.5621</ele>
        <time>2012-08-16T15:32:42Z</time>
      </trkpt>
      <trkpt lat="59.990546" lon="17.735754">
        <ele>73.6782</ele>
        <time>2012-08-16T15:32:48Z</time>
      </trkpt>
      <trkpt lat="59.9905785" lon="17.7355923">
        <ele>75.1202</ele>
        <time>2012-08-16T15:32:54Z</time>
      </trkpt>
      <trkpt lat="59.9906115" lon="17.7354755">
        <ele>74.1588</ele>
        <time>2012-08-16T15:32:59Z</time>
      </trkpt>
      <trkpt lat="59.9906255" lon="17.7354066">
        <ele>73.1976</ele>
        <time>2012-08-16T15:33:03Z</time>
      </trkpt>
      <trkpt lat="59.9906338" lon="17.7353237">
        <ele>69.3523</ele>
        <time>2012-08-16T15:33:08Z</time>
      </trkpt>
      <trkpt lat="59.9906484" lon="17.7352366">
        <ele>70.7942</ele>
        <time>2012-08-16T15:33:12Z</time>
      </trkpt>
      <trkpt lat="59.9906813" lon="17.7351584">
        <ele>70.7942</ele>
        <time>2012-08-16T15:33:16Z</time>
      </trkpt>
      <trkpt lat="59.9907115" lon="17.7351014">
        <ele>66.4683</ele>
        <time>2012-08-16T15:33:20Z</time>
      </trkpt>
      <trkpt lat="59.9907475" lon="17.7351294">
        <ele>61.6617</ele>
        <time>2012-08-16T15:33:25Z</time>
      </trkpt>
      <trkpt lat="59.9908025" lon="17.7351501">
        <ele>59.7391</ele>
        <time>2012-08-16T15:33:31Z</time>
      </trkpt>
      <trkpt lat="59.99093" lon="17.735276">
        <ele>70.7942</ele>
        <time>2012-08-16T15:33:44Z</time>
      </trkpt>
      <trkpt lat="59.9910903" lon="17.7353716">
        <ele>85.6946</ele>
        <time>2012-08-16T15:33:51Z</time>
      </trkpt>
      <trkpt lat="59.9910907" lon="17.7354211">
        <ele>82.8108</ele>
        <time>2012-08-16T15:33:56Z</time>
      </trkpt>
      <trkpt lat="59.9910697" lon="17.7354718">
        <ele>77.0428</ele>
        <time>2012-08-16T15:34:01Z</time>
      </trkpt>
      <trkpt lat="59.9910548" lon="17.7357224">
        <ele>63.1036</ele>
        <time>2012-08-16T15:34:21Z</time>
      </trkpt>
      <trkpt lat="59.9910626" lon="17.7357862">
        <ele>61.181</ele>
        <time>2012-08-16T15:34:24Z</time>
      </trkpt>
      <trkpt lat="59.9910667" lon="17.735877">
        <ele>53.4905</ele>
        <time>2012-08-16T15:34:31Z</time>
      </trkpt>
      <trkpt lat="59.991064" lon="17.7359873">
        <ele>53.0098</ele>
        <time>2012-08-16T15:34:36Z</time>
      </trkpt>
      <trkpt lat="59.991127" lon="17.7360426">
        <ele>58.2971</ele>
        <time>2012-08-16T15:34:43Z</time>
      </trkpt>
      <trkpt lat="59.9911517" lon="17.7361048">
        <ele>58.7777</ele>
        <time>2012-08-16T15:34:48Z</time>
      </trkpt>
      <trkpt lat="59.9911829" lon="17.7361758">
        <ele>57.3358</ele>
        <time>2012-08-16T15:34:55Z</time>
      </trkpt>
      <trkpt lat="59.9913097" lon="17.7362292">
        <ele>63.1036</ele>
        <time>2012-08-16T15:35:09Z</time>
      </trkpt>
      <trkpt lat="59.991321" lon="17.7362254">
        <ele>63.1036</ele>
        <time>2012-08-16T15:35:10Z</time>
      </trkpt>
      <trkpt lat="59.9913791" lon="17.7362207">
        <ele>61.181</ele>
        <time>2012-08-16T15:35:16Z</time>
      </trkpt>
      <trkpt lat="59.9914636" lon="17.7362161">
        <ele>62.1423</ele>
        <time>2012-08-16T15:35:23Z</time>
      </trkpt>
      <trkpt lat="59.9915543" lon="17.7363802">
        <ele>64.0651</ele>
        <time>2012-08-16T15:35:35Z</time>
      </trkpt>
      <trkpt lat="59.9916247" lon="17.7363743">
        <ele>62.1423</ele>
        <time>2012-08-16T15:35:45Z</time>
      </trkpt>
      <trkpt lat="59.9916627" lon="17.7363862">
        <ele>58.7777</ele>
        <time>2012-08-16T15:35:51Z</time>
      </trkpt>
      <trkpt lat="59.9917263" lon="17.7365004">
        <ele>62.1423</ele>
        <time>2012-08-16T15:35:59Z</time>
      </trkpt>
      <trkpt lat="59.9917464" lon="17.7365804">
        <ele>62.1423</ele>
        <time>2012-08-16T15:36:05Z</time>
      </trkpt>
      <trkpt lat="59.9918113" lon="17.7367936">
        <ele>70.3135</ele>
        <time>2012-08-16T15:36:14Z</time>
      </trkpt>
      <trkpt lat="59.9918738" lon="17.7370704">
        <ele>63.5844</ele>
        <time>2012-08-16T15:36:31Z</time>
      </trkpt>
      <trkpt lat="59.9918884" lon="17.7371674">
        <ele>62.1423</ele>
        <time>2012-08-16T15:36:36Z</time>
      </trkpt>
      <trkpt lat="59.9919355" lon="17.7373015">
        <ele>66.4683</ele>
        <time>2012-08-16T15:36:42Z</time>
      </trkpt>
      <trkpt lat="59.9919411" lon="17.7373627">
        <ele>66.949</ele>
        <time>2012-08-16T15:36:45Z</time>
      </trkpt>
      <trkpt lat="59.9919536" lon="17.7374796">
        <ele>71.2749</ele>
        <time>2012-08-16T15:36:50Z</time>
      </trkpt>
      <trkpt lat="59.9919498" lon="17.7375198">
        <ele>69.8329</ele>
        <time>2012-08-16T15:36:54Z</time>
      </trkpt>
      <trkpt lat="59.991952" lon="17.7374838">
        <ele>67.4297</ele>
        <time>2012-08-16T15:36:58Z</time>
      </trkpt>
      <trkpt lat="59.9919672" lon="17.7374326">
        <ele>60.2197</ele>
        <time>2012-08-16T15:37:03Z</time>
      </trkpt>
      <trkpt lat="59.9919882" lon="17.7375203">
        <ele>59.2584</ele>
        <time>2012-08-16T15:37:09Z</time>
      </trkpt>
      <trkpt lat="59.991956" lon="17.7376158">
        <ele>55.4131</ele>
        <time>2012-08-16T15:37:15Z</time>
      </trkpt>
      <trkpt lat="59.9919718" lon="17.7376221">
        <ele>56.3745</ele>
        <time>2012-08-16T15:37:16Z</time>
      </trkpt>
      <trkpt lat="59.9919924" lon="17.7376385">
        <ele>52.0486</ele>
        <time>2012-08-16T15:37:21Z</time>
      </trkpt>
      <trkpt lat="59.9920645" lon="17.737625">
        <ele>50.6066</ele>
        <time>2012-08-16T15:37:27Z</time>
      </trkpt>
      <trkpt lat="59.9920986" lon="17.737616">
        <ele>48.2034</ele>
        <time>2012-08-16T15:37:32Z</time>
      </trkpt>
      <trkpt lat="59.9921716" lon="17.7376014">
        <ele>50.6066</ele>
        <time>2012-08-16T15:37:35Z</time>
      </trkpt>
      <trkpt lat="59.9922417" lon="17.7376714">
        <ele>49.1646</ele>
        <time>2012-08-16T15:37:41Z</time>
      </trkpt>
      <trkpt lat="59.9922971" lon="17.7378151">
        <ele>52.0486</ele>
        <time>2012-08-16T15:37:46Z</time>
      </trkpt>
      <trkpt lat="59.9923247" lon="17.7378962">
        <ele>54.4518</ele>
        <time>2012-08-16T15:37:49Z</time>
      </trkpt>
      <trkpt lat="59.9923731" lon="17.7380298">
        <ele>58.2971</ele>
        <time>2012-08-16T15:37:54Z</time>
      </trkpt>
      <trkpt lat="59.9923808" lon="17.7381649">
        <ele>61.181</ele>
        <time>2012-08-16T15:38:00Z</time>
      </trkpt>
      <trkpt lat="59.9924316" lon="17.7383447">
        <ele>67.4297</ele>
        <time>2012-08-16T15:38:06Z</time>
      </trkpt>
      <trkpt lat="59.9924982" lon="17.7385334">
        <ele>73.1976</ele>
        <time>2012-08-16T15:38:13Z</time>
      </trkpt>
      <trkpt lat="59.9925012" lon="17.7385561">
        <ele>73.1976</ele>
        <time>2012-08-16T15:38:14Z</time>
      </trkpt>
      <trkpt lat="59.9924701" lon="17.7387358">
        <ele>69.3523</ele>
        <time>2012-08-16T15:38:22Z</time>
      </trkpt>
      <trkpt lat="59.9924613" lon="17.7389285">
        <ele>66.4683</ele>
        <time>2012-08-16T15:38:30Z</time>
      </trkpt>
      <trkpt lat="59.9924813" lon="17.7390612">
        <ele>65.5071</ele>
        <time>2012-08-16T15:38:35Z</time>
      </trkpt>
      <trkpt lat="59.9925208" lon="17.7392296">
        <ele>65.5071</ele>
        <time>2012-08-16T15:38:42Z</time>
      </trkpt>
      <trkpt lat="59.9925421" lon="17.739381">
        <ele>63.5844</ele>
        <time>2012-08-16T15:38:48Z</time>
      </trkpt>
      <trkpt lat="59.9925352" lon="17.7394476">
        <ele>61.181</ele>
        <time>2012-08-16T15:38:51Z</time>
      </trkpt>
      <trkpt lat="59.9925376" lon="17.7396154">
        <ele>60.2197</ele>
        <time>2012-08-16T15:38:57Z</time>
      </trkpt>
      <trkpt lat="59.9925436" lon="17.7397558">
        <ele>60.2197</ele>
        <time>2012-08-16T15:39:02Z</time>
      </trkpt>
      <trkpt lat="59.9925384" lon="17.7399216">
        <ele>56.3745</ele>
        <time>2012-08-16T15:39:08Z</time>
      </trkpt>
      <trkpt lat="59.9925333" lon="17.7399758">
        <ele>55.4131</ele>
        <time>2012-08-16T15:39:10Z</time>
      </trkpt>
      <trkpt lat="59.9925481" lon="17.7401707">
        <ele>54.4518</ele>
        <time>2012-08-16T15:39:17Z</time>
      </trkpt>
      <trkpt lat="59.9925519" lon="17.7401983">
        <ele>54.9324</ele>
        <time>2012-08-16T15:39:18Z</time>
      </trkpt>
      <trkpt lat="59.9925772" lon="17.7403323">
        <ele>54.9324</ele>
        <time>2012-08-16T15:39:23Z</time>
      </trkpt>
      <trkpt lat="59.9926179" lon="17.7406064">
        <ele>55.8938</ele>
        <time>2012-08-16T15:39:33Z</time>
      </trkpt>
      <trkpt lat="59.9926316" lon="17.7407384">
        <ele>55.4131</ele>
        <time>2012-08-16T15:39:38Z</time>
      </trkpt>
      <trkpt lat="59.9926467" lon="17.7409089">
        <ele>55.4131</ele>
        <time>2012-08-16T15:39:44Z</time>
      </trkpt>
      <trkpt lat="59.9926607" lon="17.7410974">
        <ele>53.0098</ele>
        <time>2012-08-16T15:39:50Z</time>
      </trkpt>
      <trkpt lat="59.9926608" lon="17.7412866">
        <ele>50.126</ele>
        <time>2012-08-16T15:39:57Z</time>
      </trkpt>
      <trkpt lat="59.9926762" lon="17.7414974">
        <ele>49.1646</ele>
        <time>2012-08-16T15:40:05Z</time>
      </trkpt>
      <trkpt lat="59.9927172" lon="17.7416622">
        <ele>49.6453</ele>
        <time>2012-08-16T15:40:12Z</time>
      </trkpt>
      <trkpt lat="59.9927896" lon="17.7418371">
        <ele>52.0486</ele>
        <time>2012-08-16T15:40:20Z</time>
      </trkpt>
      <trkpt lat="59.9928887" lon="17.7419867">
        <ele>54.9324</ele>
        <time>2012-08-16T15:40:28Z</time>
      </trkpt>
      <trkpt lat="59.9929537" lon="17.7420804">
        <ele>56.3745</ele>
        <time>2012-08-16T15:40:33Z</time>
      </trkpt>
      <trkpt lat="59.9930555" lon="17.7421964">
        <ele>57.3358</ele>
        <time>2012-08-16T15:40:40Z</time>
      </trkpt>
      <trkpt lat="59.9931617" lon="17.7422923">
        <ele>59.2584</ele>
        <time>2012-08-16T15:40:46Z</time>
      </trkpt>
      <trkpt lat="59.9932552" lon="17.7423943">
        <ele>61.181</ele>
        <time>2012-08-16T15:40:53Z</time>
      </trkpt>
      <trkpt lat="59.9933507" lon="17.7424944">
        <ele>63.5844</ele>
        <time>2012-08-16T15:40:59Z</time>
      </trkpt>
      <trkpt lat="59.9934471" lon="17.7425774">
        <ele>65.9877</ele>
        <time>2012-08-16T15:41:05Z</time>
      </trkpt>
      <trkpt lat="59.9935748" lon="17.7427232">
        <ele>67.4297</ele>
        <time>2012-08-16T15:41:15Z</time>
      </trkpt>
      <trkpt lat="59.9936427" lon="17.7427974">
        <ele>68.3909</ele>
        <time>2012-08-16T15:41:20Z</time>
      </trkpt>
      <trkpt lat="59.9936906" lon="17.742854">
        <ele>68.8716</ele>
        <time>2012-08-16T15:41:24Z</time>
      </trkpt>
      <trkpt lat="59.9937074" lon="17.7429016">
        <ele>69.8329</ele>
        <time>2012-08-16T15:41:26Z</time>
      </trkpt>
      <trkpt lat="59.9936904" lon="17.7430439">
        <ele>68.8716</ele>
        <time>2012-08-16T15:41:32Z</time>
      </trkpt>
      <trkpt lat="59.9936852" lon="17.7430829">
        <ele>68.3909</ele>
        <time>2012-08-16T15:41:34Z</time>
      </trkpt>
      <trkpt lat="59.9936885" lon="17.7431252">
        <ele>68.3909</ele>
        <time>2012-08-16T15:41:36Z</time>
      </trkpt>
      <trkpt lat="59.9936331" lon="17.7432389">
        <ele>65.9877</ele>
        <time>2012-08-16T15:41:42Z</time>
      </trkpt>
      <trkpt lat="59.9936096" lon="17.7432839">
        <ele>64.0651</ele>
        <time>2012-08-16T15:41:45Z</time>
      </trkpt>
      <trkpt lat="59.9935823" lon="17.7434356">
        <ele>62.6229</ele>
        <time>2012-08-16T15:41:53Z</time>
      </trkpt>
      <trkpt lat="59.9935533" lon="17.7434904">
        <ele>60.7003</ele>
        <time>2012-08-16T15:41:57Z</time>
      </trkpt>
      <trkpt lat="59.9935844" lon="17.743566">
        <ele>61.181</ele>
        <time>2012-08-16T15:42:03Z</time>
      </trkpt>
      <trkpt lat="59.9935845" lon="17.7436811">
        <ele>63.1036</ele>
        <time>2012-08-16T15:42:09Z</time>
      </trkpt>
      <trkpt lat="59.993577" lon="17.743763">
        <ele>63.1036</ele>
        <time>2012-08-16T15:42:14Z</time>
      </trkpt>
      <trkpt lat="59.9935776" lon="17.7438328">
        <ele>64.5457</ele>
        <time>2012-08-16T15:42:19Z</time>
      </trkpt>
      <trkpt lat="59.9935708" lon="17.7439198">
        <ele>64.5457</ele>
        <time>2012-08-16T15:42:25Z</time>
      </trkpt>
      <trkpt lat="59.9935873" lon="17.7439877">
        <ele>67.4297</ele>
        <time>2012-08-16T15:42:29Z</time>
      </trkpt>
      <trkpt lat="59.99357" lon="17.7440675">
        <ele>64.5457</ele>
        <time>2012-08-16T15:42:34Z</time>
      </trkpt>
      <trkpt lat="59.9935617" lon="17.7441025">
        <ele>62.6229</ele>
        <time>2012-08-16T15:42:36Z</time>
      </trkpt>
      <trkpt lat="59.993571" lon="17.7442654">
        <ele>66.4683</ele>
        <time>2012-08-16T15:42:44Z</time>
      </trkpt>
      <trkpt lat="59.9935591" lon="17.7444356">
        <ele>62.6229</ele>
        <time>2012-08-16T15:42:52Z</time>
      </trkpt>
      <trkpt lat="59.9935533" lon="17.7445542">
        <ele>59.7391</ele>
        <time>2012-08-16T15:42:58Z</time>
      </trkpt>
      <trkpt lat="59.9935569" lon="17.7445738">
        <ele>59.2584</ele>
        <time>2012-08-16T15:42:59Z</time>
      </trkpt>
      <trkpt lat="59.9935409" lon="17.744712">
        <ele>56.8551</ele>
        <time>2012-08-16T15:43:06Z</time>
      </trkpt>
      <trkpt lat="59.9934994" lon="17.7448665">
        <ele>55.8938</ele>
        <time>2012-08-16T15:43:13Z</time>
      </trkpt>
      <trkpt lat="59.9934847" lon="17.7449595">
        <ele>56.3745</ele>
        <time>2012-08-16T15:43:17Z</time>
      </trkpt>
      <trkpt lat="59.993477" lon="17.744982">
        <ele>56.3745</ele>
        <time>2012-08-16T15:43:18Z</time>
      </trkpt>
      <trkpt lat="59.9934419" lon="17.7450952">
        <ele>56.8551</ele>
        <time>2012-08-16T15:43:25Z</time>
      </trkpt>
      <trkpt lat="59.9934388" lon="17.7451151">
        <ele>56.8551</ele>
        <time>2012-08-16T15:43:26Z</time>
      </trkpt>
      <trkpt lat="59.9934433" lon="17.7451981">
        <ele>56.3745</ele>
        <time>2012-08-16T15:43:31Z</time>
      </trkpt>
      <trkpt lat="59.9934206" lon="17.7453007">
        <ele>55.4131</ele>
        <time>2012-08-16T15:43:36Z</time>
      </trkpt>
      <trkpt lat="59.9934249" lon="17.7453926">
        <ele>56.3745</ele>
        <time>2012-08-16T15:43:40Z</time>
      </trkpt>
      <trkpt lat="59.99343" lon="17.7455764">
        <ele>55.8938</ele>
        <time>2012-08-16T15:43:48Z</time>
      </trkpt>
      <trkpt lat="59.9934386" lon="17.7456686">
        <ele>55.4131</ele>
        <time>2012-08-16T15:43:52Z</time>
      </trkpt>
      <trkpt lat="59.9934407" lon="17.7456865">
        <ele>55.4131</ele>
        <time>2012-08-16T15:43:53Z</time>
      </trkpt>
      <trkpt lat="59.993437" lon="17.7458212">
        <ele>53.9712</ele>
        <time>2012-08-16T15:44:00Z</time>
      </trkpt>
      <trkpt lat="59.9934049" lon="17.7459202">
        <ele>52.5292</ele>
        <time>2012-08-16T15:44:05Z</time>
      </trkpt>
      <trkpt lat="59.9933959" lon="17.7459698">
        <ele>51.5679</ele>
        <time>2012-08-16T15:44:08Z</time>
      </trkpt>
      <trkpt lat="59.9933659" lon="17.7460771">
        <ele>52.0486</ele>
        <time>2012-08-16T15:44:14Z</time>
      </trkpt>
      <trkpt lat="59.9933488" lon="17.7461502">
        <ele>53.9712</ele>
        <time>2012-08-16T15:44:21Z</time>
      </trkpt>
      <trkpt lat="59.9933167" lon="17.7462046">
        <ele>55.4131</ele>
        <time>2012-08-16T15:44:27Z</time>
      </trkpt>
      <trkpt lat="59.9933093" lon="17.746235">
        <ele>56.8551</ele>
        <time>2012-08-16T15:44:38Z</time>
      </trkpt>
      <trkpt lat="59.9932938" lon="17.7463139">
        <ele>58.2971</ele>
        <time>2012-08-16T15:44:44Z</time>
      </trkpt>
      <trkpt lat="59.9932713" lon="17.7463816">
        <ele>58.7777</ele>
        <time>2012-08-16T15:44:49Z</time>
      </trkpt>
      <trkpt lat="59.9932429" lon="17.7464168">
        <ele>57.8165</ele>
        <time>2012-08-16T15:44:54Z</time>
      </trkpt>
      <trkpt lat="59.9932444" lon="17.7464734">
        <ele>59.2584</ele>
        <time>2012-08-16T15:45:01Z</time>
      </trkpt>
      <trkpt lat="59.9932399" lon="17.7465599">
        <ele>58.2971</ele>
        <time>2012-08-16T15:45:07Z</time>
      </trkpt>
      <trkpt lat="59.9932195" lon="17.7466381">
        <ele>57.8165</ele>
        <time>2012-08-16T15:45:13Z</time>
      </trkpt>
      <trkpt lat="59.9931705" lon="17.7466199">
        <ele>57.3358</ele>
        <time>2012-08-16T15:45:22Z</time>
      </trkpt>
      <trkpt lat="59.9931347" lon="17.7465874">
        <ele>55.8938</ele>
        <time>2012-08-16T15:45:27Z</time>
      </trkpt>
      <trkpt lat="59.9930902" lon="17.746579">
        <ele>51.5679</ele>
        <time>2012-08-16T15:45:33Z</time>
      </trkpt>
      <trkpt lat="59.9930361" lon="17.7465996">
        <ele>48.2034</ele>
        <time>2012-08-16T15:45:39Z</time>
      </trkpt>
      <trkpt lat="59.9930299" lon="17.7465453">
        <ele>49.6453</ele>
        <time>2012-08-16T15:45:44Z</time>
      </trkpt>
      <trkpt lat="59.9930538" lon="17.7465105">
        <ele>48.2034</ele>
        <time>2012-08-16T15:45:50Z</time>
      </trkpt>
      <trkpt lat="59.9930928" lon="17.7464569">
        <ele>47.7225</ele>
        <time>2012-08-16T15:45:56Z</time>
      </trkpt>
      <trkpt lat="59.9931259" lon="17.7464267">
        <ele>47.2418</ele>
        <time>2012-08-16T15:46:01Z</time>
      </trkpt>
      <trkpt lat="59.9931688" lon="17.7463993">
        <ele>52.5292</ele>
        <time>2012-08-16T15:46:08Z</time>
      </trkpt>
      <trkpt lat="59.993221" lon="17.7463283">
        <ele>57.3358</ele>
        <time>2012-08-16T15:46:14Z</time>
      </trkpt>
      <trkpt lat="59.9932595" lon="17.7462356">
        <ele>60.2197</ele>
        <time>2012-08-16T15:46:22Z</time>
      </trkpt>
      <trkpt lat="59.9932882" lon="17.7461657">
        <ele>62.1423</ele>
        <time>2012-08-16T15:46:27Z</time>
      </trkpt>
      <trkpt lat="59.9933" lon="17.746131">
        <ele>62.1423</ele>
        <time>2012-08-16T15:46:31Z</time>
      </trkpt>
      <trkpt lat="59.9933415" lon="17.7460437">
        <ele>60.7003</ele>
        <time>2012-08-16T15:46:38Z</time>
      </trkpt>
      <trkpt lat="59.9933673" lon="17.7459624">
        <ele>61.6617</ele>
        <time>2012-08-16T15:46:42Z</time>
      </trkpt>
      <trkpt lat="59.9933858" lon="17.7458957">
        <ele>61.6617</ele>
        <time>2012-08-16T15:46:46Z</time>
      </trkpt>
      <trkpt lat="59.9933999" lon="17.7457954">
        <ele>63.5844</ele>
        <time>2012-08-16T15:46:50Z</time>
      </trkpt>
      <trkpt lat="59.993415" lon="17.7456098">
        <ele>65.5071</ele>
        <time>2012-08-16T15:46:59Z</time>
      </trkpt>
      <trkpt lat="59.9934101" lon="17.7455689">
        <ele>65.0264</ele>
        <time>2012-08-16T15:47:01Z</time>
      </trkpt>
      <trkpt lat="59.9934046" lon="17.7454554">
        <ele>63.1036</ele>
        <time>2012-08-16T15:47:08Z</time>
      </trkpt>
      <trkpt lat="59.9934039" lon="17.7453959">
        <ele>63.5844</ele>
        <time>2012-08-16T15:47:10Z</time>
      </trkpt>
      <trkpt lat="59.9933998" lon="17.7452506">
        <ele>63.1036</ele>
        <time>2012-08-16T15:47:15Z</time>
      </trkpt>
      <trkpt lat="59.9934029" lon="17.7452304">
        <ele>63.5844</ele>
        <time>2012-08-16T15:47:16Z</time>
      </trkpt>
      <trkpt lat="59.9934082" lon="17.7450536">
        <ele>60.7003</ele>
        <time>2012-08-16T15:47:24Z</time>
      </trkpt>
      <trkpt lat="59.9933941" lon="17.7449735">
        <ele>60.7003</ele>
        <time>2012-08-16T15:47:28Z</time>
      </trkpt>
      <trkpt lat="59.9933641" lon="17.7448815">
        <ele>57.8165</ele>
        <time>2012-08-16T15:47:35Z</time>
      </trkpt>
      <trkpt lat="59.9933578" lon="17.7447552">
        <ele>55.8938</ele>
        <time>2012-08-16T15:47:42Z</time>
      </trkpt>
      <trkpt lat="59.9933453" lon="17.7446566">
        <ele>53.9712</ele>
        <time>2012-08-16T15:47:48Z</time>
      </trkpt>
      <trkpt lat="59.9933115" lon="17.7445702">
        <ele>51.5679</ele>
        <time>2012-08-16T15:47:53Z</time>
      </trkpt>
      <trkpt lat="59.9933015" lon="17.7445482">
        <ele>50.6066</ele>
        <time>2012-08-16T15:47:55Z</time>
      </trkpt>
      <trkpt lat="59.9932688" lon="17.7444461">
        <ele>50.6066</ele>
        <time>2012-08-16T15:48:01Z</time>
      </trkpt>
      <trkpt lat="59.9932478" lon="17.7443801">
        <ele>50.126</ele>
        <time>2012-08-16T15:48:06Z</time>
      </trkpt>
      <trkpt lat="59.993235" lon="17.7442889">
        <ele>50.6066</ele>
        <time>2012-08-16T15:48:13Z</time>
      </trkpt>
      <trkpt lat="59.9931789" lon="17.7441991">
        <ele>50.6066</ele>
        <time>2012-08-16T15:48:19Z</time>
      </trkpt>
      <trkpt lat="59.9931197" lon="17.7441365">
        <ele>50.126</ele>
        <time>2012-08-16T15:48:25Z</time>
      </trkpt>
      <trkpt lat="59.9930703" lon="17.7440538">
        <ele>50.6066</ele>
        <time>2012-08-16T15:48:31Z</time>
      </trkpt>
      <trkpt lat="59.9930492" lon="17.7439856">
        <ele>51.5679</ele>
        <time>2012-08-16T15:48:35Z</time>
      </trkpt>
      <trkpt lat="59.9929955" lon="17.7439352">
        <ele>51.5679</ele>
        <time>2012-08-16T15:48:42Z</time>
      </trkpt>
      <trkpt lat="59.9929511" lon="17.7439036">
        <ele>52.5292</ele>
        <time>2012-08-16T15:48:48Z</time>
      </trkpt>
      <trkpt lat="59.9929033" lon="17.7438676">
        <ele>53.0098</ele>
        <time>2012-08-16T15:48:54Z</time>
      </trkpt>
      <trkpt lat="59.9928911" lon="17.7437921">
        <ele>51.5679</ele>
        <time>2012-08-16T15:48:59Z</time>
      </trkpt>
      <trkpt lat="59.9928939" lon="17.7436925">
        <ele>52.0486</ele>
        <time>2012-08-16T15:49:05Z</time>
      </trkpt>
      <trkpt lat="59.9929311" lon="17.7436199">
        <ele>53.0098</ele>
        <time>2012-08-16T15:49:12Z</time>
      </trkpt>
      <trkpt lat="59.9929424" lon="17.7435422">
        <ele>53.0098</ele>
        <time>2012-08-16T15:49:16Z</time>
      </trkpt>
      <trkpt lat="59.9929519" lon="17.7434633">
        <ele>53.9712</ele>
        <time>2012-08-16T15:49:21Z</time>
      </trkpt>
      <trkpt lat="59.9929884" lon="17.7434676">
        <ele>54.9324</ele>
        <time>2012-08-16T15:49:26Z</time>
      </trkpt>
      <trkpt lat="59.9930337" lon="17.7435051">
        <ele>54.9324</ele>
        <time>2012-08-16T15:49:32Z</time>
      </trkpt>
      <trkpt lat="59.9930669" lon="17.7434839">
        <ele>54.4518</ele>
        <time>2012-08-16T15:49:36Z</time>
      </trkpt>
      <trkpt lat="59.9931183" lon="17.7434565">
        <ele>55.4131</ele>
        <time>2012-08-16T15:49:42Z</time>
      </trkpt>
      <trkpt lat="59.993143" lon="17.7435212">
        <ele>55.4131</ele>
        <time>2012-08-16T15:49:47Z</time>
      </trkpt>
      <trkpt lat="59.9931721" lon="17.7435073">
        <ele>54.9324</ele>
        <time>2012-08-16T15:49:52Z</time>
      </trkpt>
      <trkpt lat="59.9931895" lon="17.7434904">
        <ele>54.9324</ele>
        <time>2012-08-16T15:49:54Z</time>
      </trkpt>
      <trkpt lat="59.9932538" lon="17.743459">
        <ele>54.9324</ele>
        <time>2012-08-16T15:50:00Z</time>
      </trkpt>
      <trkpt lat="59.9933052" lon="17.7434145">
        <ele>54.4518</ele>
        <time>2012-08-16T15:50:06Z</time>
      </trkpt>
      <trkpt lat="59.9933407" lon="17.7434118">
        <ele>54.9324</ele>
        <time>2012-08-16T15:50:10Z</time>
      </trkpt>
      <trkpt lat="59.9933749" lon="17.7433485">
        <ele>55.4131</ele>
        <time>2012-08-16T15:50:15Z</time>
      </trkpt>
      <trkpt lat="59.9934223" lon="17.7433258">
        <ele>54.9324</ele>
        <time>2012-08-16T15:50:20Z</time>
      </trkpt>
      <trkpt lat="59.9934464" lon="17.7433202">
        <ele>55.4131</ele>
        <time>2012-08-16T15:50:22Z</time>
      </trkpt>
      <trkpt lat="59.993503" lon="17.7432787">
        <ele>56.8551</ele>
        <time>2012-08-16T15:50:29Z</time>
      </trkpt>
      <trkpt lat="59.9935362" lon="17.7432741">
        <ele>57.8165</ele>
        <time>2012-08-16T15:50:34Z</time>
      </trkpt>
      <trkpt lat="59.99357" lon="17.743287">
        <ele>57.3358</ele>
        <time>2012-08-16T15:50:38Z</time>
      </trkpt>
      <trkpt lat="59.993591" lon="17.7432322">
        <ele>56.8551</ele>
        <time>2012-08-16T15:50:42Z</time>
      </trkpt>
      <trkpt lat="59.9936194" lon="17.7431672">
        <ele>55.4131</ele>
        <time>2012-08-16T15:50:46Z</time>
      </trkpt>
      <trkpt lat="59.9936994" lon="17.7431411">
        <ele>55.4131</ele>
        <time>2012-08-16T15:50:53Z</time>
      </trkpt>
      <trkpt lat="59.9937406" lon="17.7431197">
        <ele>55.4131</ele>
        <time>2012-08-16T15:50:56Z</time>
      </trkpt>
      <trkpt lat="59.9937542" lon="17.7430517">
        <ele>54.9324</ele>
        <time>2012-08-16T15:51:00Z</time>
      </trkpt>
      <trkpt lat="59.99369" lon="17.7429224">
        <ele>55.8938</ele>
        <time>2012-08-16T15:51:07Z</time>
      </trkpt>
      <trkpt lat="59.9935969" lon="17.7428246">
        <ele>55.8938</ele>
        <time>2012-08-16T15:51:14Z</time>
      </trkpt>
      <trkpt lat="59.9935185" lon="17.7427357">
        <ele>54.9324</ele>
        <time>2012-08-16T15:51:20Z</time>
      </trkpt>
      <trkpt lat="59.9934362" lon="17.7426271">
        <ele>55.8938</ele>
        <time>2012-08-16T15:51:27Z</time>
      </trkpt>
      <trkpt lat="59.9933508" lon="17.7425174">
        <ele>55.8938</ele>
        <time>2012-08-16T15:51:34Z</time>
      </trkpt>
      <trkpt lat="59.9932497" lon="17.7424079">
        <ele>54.4518</ele>
        <time>2012-08-16T15:51:42Z</time>
      </trkpt>
      <trkpt lat="59.9931694" lon="17.7423043">
        <ele>55.8938</ele>
        <time>2012-08-16T15:51:49Z</time>
      </trkpt>
      <trkpt lat="59.9930974" lon="17.7421775">
        <ele>57.8165</ele>
        <time>2012-08-16T15:51:56Z</time>
      </trkpt>
      <trkpt lat="59.9929911" lon="17.7420236">
        <ele>56.8551</ele>
        <time>2012-08-16T15:52:05Z</time>
      </trkpt>
      <trkpt lat="59.9929141" lon="17.7418827">
        <ele>56.8551</ele>
        <time>2012-08-16T15:52:12Z</time>
      </trkpt>
      <trkpt lat="59.9928373" lon="17.7417651">
        <ele>56.8551</ele>
        <time>2012-08-16T15:52:19Z</time>
      </trkpt>
      <trkpt lat="59.9927339" lon="17.7416834">
        <ele>53.9712</ele>
        <time>2012-08-16T15:52:27Z</time>
      </trkpt>
      <trkpt lat="59.992667" lon="17.7417896">
        <ele>53.9712</ele>
        <time>2012-08-16T15:52:33Z</time>
      </trkpt>
      <trkpt lat="59.9926286" lon="17.7419506">
        <ele>54.4518</ele>
        <time>2012-08-16T15:52:40Z</time>
      </trkpt>
      <trkpt lat="59.9926028" lon="17.7420827">
        <ele>54.9324</ele>
        <time>2012-08-16T15:52:45Z</time>
      </trkpt>
      <trkpt lat="59.9925877" lon="17.742191">
        <ele>55.4131</ele>
        <time>2012-08-16T15:52:50Z</time>
      </trkpt>
      <trkpt lat="59.9925371" lon="17.7424677">
        <ele>54.9324</ele>
        <time>2012-08-16T15:53:00Z</time>
      </trkpt>
      <trkpt lat="59.9924928" lon="17.7427306">
        <ele>55.8938</ele>
        <time>2012-08-16T15:53:10Z</time>
      </trkpt>
      <trkpt lat="59.9924746" lon="17.7428425">
        <ele>56.3745</ele>
        <time>2012-08-16T15:53:15Z</time>
      </trkpt>
      <trkpt lat="59.9924421" lon="17.7429812">
        <ele>56.8551</ele>
        <time>2012-08-16T15:53:21Z</time>
      </trkpt>
      <trkpt lat="59.9924333" lon="17.7430077">
        <ele>56.3745</ele>
        <time>2012-08-16T15:53:22Z</time>
      </trkpt>
      <trkpt lat="59.9923764" lon="17.7431744">
        <ele>54.4518</ele>
        <time>2012-08-16T15:53:29Z</time>
      </trkpt>
      <trkpt lat="59.992322" lon="17.7433539">
        <ele>54.4518</ele>
        <time>2012-08-16T15:53:37Z</time>
      </trkpt>
      <trkpt lat="59.9922861" lon="17.7434601">
        <ele>54.4518</ele>
        <time>2012-08-16T15:53:42Z</time>
      </trkpt>
      <trkpt lat="59.9922321" lon="17.743574">
        <ele>53.0098</ele>
        <time>2012-08-16T15:53:48Z</time>
      </trkpt>
      <trkpt lat="59.9922027" lon="17.7436756">
        <ele>52.0486</ele>
        <time>2012-08-16T15:53:52Z</time>
      </trkpt>
      <trkpt lat="59.9921458" lon="17.7438492">
        <ele>50.126</ele>
        <time>2012-08-16T15:54:00Z</time>
      </trkpt>
      <trkpt lat="59.9920899" lon="17.744006">
        <ele>46.7612</ele>
        <time>2012-08-16T15:54:07Z</time>
      </trkpt>
      <trkpt lat="59.9920213" lon="17.7441776">
        <ele>45.3192</ele>
        <time>2012-08-16T15:54:16Z</time>
      </trkpt>
      <trkpt lat="59.991959" lon="17.7443339">
        <ele>45.3192</ele>
        <time>2012-08-16T15:54:24Z</time>
      </trkpt>
      <trkpt lat="59.9918997" lon="17.7444868">
        <ele>45.3192</ele>
        <time>2012-08-16T15:54:31Z</time>
      </trkpt>
      <trkpt lat="59.9918464" lon="17.7446157">
        <ele>46.2806</ele>
        <time>2012-08-16T15:54:38Z</time>
      </trkpt>
      <trkpt lat="59.9918023" lon="17.7447898">
        <ele>47.2418</ele>
        <time>2012-08-16T15:54:45Z</time>
      </trkpt>
      <trkpt lat="59.9917792" lon="17.7449011">
        <ele>47.7225</ele>
        <time>2012-08-16T15:54:49Z</time>
      </trkpt>
      <trkpt lat="59.9917091" lon="17.7448489">
        <ele>47.7225</ele>
        <time>2012-08-16T15:54:54Z</time>
      </trkpt>
      <trkpt lat="59.9916677" lon="17.7448047">
        <ele>46.7612</ele>
        <time>2012-08-16T15:54:58Z</time>
      </trkpt>
      <trkpt lat="59.9916109" lon="17.7446738">
        <ele>49.1646</ele>
        <time>2012-08-16T15:55:05Z</time>
      </trkpt>
      <trkpt lat="59.9915715" lon="17.7446197">
        <ele>47.7225</ele>
        <time>2012-08-16T15:55:10Z</time>
      </trkpt>
      <trkpt lat="59.9915161" lon="17.7446407">
        <ele>43.8773</ele>
        <time>2012-08-16T15:55:16Z</time>
      </trkpt>
      <trkpt lat="59.9914656" lon="17.7446789">
        <ele>43.3966</ele>
        <time>2012-08-16T15:55:23Z</time>
      </trkpt>
      <trkpt lat="59.9914288" lon="17.7446375">
        <ele>43.8773</ele>
        <time>2012-08-16T15:55:28Z</time>
      </trkpt>
      <trkpt lat="59.9913759" lon="17.7446052">
        <ele>44.358</ele>
        <time>2012-08-16T15:55:34Z</time>
      </trkpt>
      <trkpt lat="59.9913446" lon="17.74464">
        <ele>45.7999</ele>
        <time>2012-08-16T15:55:41Z</time>
      </trkpt>
      <trkpt lat="59.9913216" lon="17.7446007">
        <ele>48.684</ele>
        <time>2012-08-16T15:55:51Z</time>
      </trkpt>
      <trkpt lat="59.9912897" lon="17.7445591">
        <ele>51.0872</ele>
        <time>2012-08-16T15:55:57Z</time>
      </trkpt>
      <trkpt lat="59.9912457" lon="17.7444777">
        <ele>51.0872</ele>
        <time>2012-08-16T15:56:04Z</time>
      </trkpt>
      <trkpt lat="59.9911952" lon="17.7444675">
        <ele>51.5679</ele>
        <time>2012-08-16T15:56:12Z</time>
      </trkpt>
      <trkpt lat="59.9911726" lon="17.7445124">
        <ele>52.5292</ele>
        <time>2012-08-16T15:56:20Z</time>
      </trkpt>
      <trkpt lat="59.9911652" lon="17.7445256">
        <ele>52.0486</ele>
        <time>2012-08-16T15:56:25Z</time>
      </trkpt>
      <trkpt lat="59.9911218" lon="17.7444945">
        <ele>52.5292</ele>
        <time>2012-08-16T15:56:31Z</time>
      </trkpt>
      <trkpt lat="59.9910943" lon="17.7444665">
        <ele>51.5679</ele>
        <time>2012-08-16T15:56:39Z</time>
      </trkpt>
      <trkpt lat="59.991071" lon="17.744434">
        <ele>52.5292</ele>
        <time>2012-08-16T15:56:46Z</time>
      </trkpt>
      <trkpt lat="59.991057" lon="17.744394">
        <ele>57.8165</ele>
        <time>2012-08-16T15:56:54Z</time>
      </trkpt>
      <trkpt lat="59.9910865" lon="17.7444223">
        <ele>56.8551</ele>
        <time>2012-08-16T15:56:59Z</time>
      </trkpt>
      <trkpt lat="59.9911284" lon="17.7443819">
        <ele>54.9324</ele>
        <time>2012-08-16T15:57:05Z</time>
      </trkpt>
      <trkpt lat="59.9911715" lon="17.7443915">
        <ele>55.8938</ele>
        <time>2012-08-16T15:57:10Z</time>
      </trkpt>
      <trkpt lat="59.9912078" lon="17.7444408">
        <ele>56.3745</ele>
        <time>2012-08-16T15:57:14Z</time>
      </trkpt>
      <trkpt lat="59.9912326" lon="17.7444972">
        <ele>54.4518</ele>
        <time>2012-08-16T15:57:18Z</time>
      </trkpt>
      <trkpt lat="59.9912945" lon="17.7445444">
        <ele>54.4518</ele>
        <time>2012-08-16T15:57:25Z</time>
      </trkpt>
      <trkpt lat="59.9913" lon="17.74458">
        <ele>53.9712</ele>
        <time>2012-08-16T15:57:28Z</time>
      </trkpt>
      <trkpt lat="59.9913332" lon="17.7446561">
        <ele>51.0872</ele>
        <time>2012-08-16T15:57:34Z</time>
      </trkpt>
      <trkpt lat="59.991378" lon="17.7447075">
        <ele>51.0872</ele>
        <time>2012-08-16T15:57:38Z</time>
      </trkpt>
      <trkpt lat="59.991476" lon="17.7446681">
        <ele>53.0098</ele>
        <time>2012-08-16T15:57:44Z</time>
      </trkpt>
      <trkpt lat="59.9915201" lon="17.7446592">
        <ele>52.5292</ele>
        <time>2012-08-16T15:57:47Z</time>
      </trkpt>
      <trkpt lat="59.9916184" lon="17.7447261">
        <ele>53.0098</ele>
        <time>2012-08-16T15:57:54Z</time>
      </trkpt>
      <trkpt lat="59.9916616" lon="17.7448462">
        <ele>51.0872</ele>
        <time>2012-08-16T15:58:02Z</time>
      </trkpt>
      <trkpt lat="59.9917121" lon="17.7449215">
        <ele>51.0872</ele>
        <time>2012-08-16T15:58:07Z</time>
      </trkpt>
      <trkpt lat="59.9917496" lon="17.7450311">
        <ele>53.4905</ele>
        <time>2012-08-16T15:58:12Z</time>
      </trkpt>
      <trkpt lat="59.9917445" lon="17.7451959">
        <ele>54.9324</ele>
        <time>2012-08-16T15:58:19Z</time>
      </trkpt>
      <trkpt lat="59.9917391" lon="17.7453934">
        <ele>52.5292</ele>
        <time>2012-08-16T15:58:26Z</time>
      </trkpt>
      <trkpt lat="59.9917377" lon="17.7454876">
        <ele>53.4905</ele>
        <time>2012-08-16T15:58:30Z</time>
      </trkpt>
      <trkpt lat="59.9917133" lon="17.7456536">
        <ele>53.9712</ele>
        <time>2012-08-16T15:58:37Z</time>
      </trkpt>
      <trkpt lat="59.9916869" lon="17.7458448">
        <ele>53.4905</ele>
        <time>2012-08-16T15:58:44Z</time>
      </trkpt>
      <trkpt lat="59.9916831" lon="17.7458708">
        <ele>53.0098</ele>
        <time>2012-08-16T15:58:45Z</time>
      </trkpt>
      <trkpt lat="59.9916532" lon="17.7460792">
        <ele>53.4905</ele>
        <time>2012-08-16T15:58:53Z</time>
      </trkpt>
      <trkpt lat="59.9916387" lon="17.7462372">
        <ele>53.9712</ele>
        <time>2012-08-16T15:58:59Z</time>
      </trkpt>
      <trkpt lat="59.9916242" lon="17.7463899">
        <ele>53.4905</ele>
        <time>2012-08-16T15:59:05Z</time>
      </trkpt>
      <trkpt lat="59.9916041" lon="17.7465339">
        <ele>53.0098</ele>
        <time>2012-08-16T15:59:11Z</time>
      </trkpt>
      <trkpt lat="59.9915675" lon="17.7467148">
        <ele>52.0486</ele>
        <time>2012-08-16T15:59:18Z</time>
      </trkpt>
      <trkpt lat="59.9915526" lon="17.746924">
        <ele>52.0486</ele>
        <time>2012-08-16T15:59:26Z</time>
      </trkpt>
      <trkpt lat="59.9915589" lon="17.7470271">
        <ele>53.4905</ele>
        <time>2012-08-16T15:59:29Z</time>
      </trkpt>
      <trkpt lat="59.9915403" lon="17.7471032">
        <ele>53.9712</ele>
        <time>2012-08-16T15:59:32Z</time>
      </trkpt>
      <trkpt lat="59.9915189" lon="17.7472048">
        <ele>53.4905</ele>
        <time>2012-08-16T15:59:36Z</time>
      </trkpt>
      <trkpt lat="59.9915041" lon="17.7473719">
        <ele>52.5292</ele>
        <time>2012-08-16T15:59:42Z</time>
      </trkpt>
      <trkpt lat="59.991476" lon="17.7475938">
        <ele>52.0486</ele>
        <time>2012-08-16T15:59:50Z</time>
      </trkpt>
      <trkpt lat="59.9914719" lon="17.7477024">
        <ele>52.5292</ele>
        <time>2012-08-16T15:59:54Z</time>
      </trkpt>
      <trkpt lat="59.9914391" lon="17.747903">
        <ele>51.5679</ele>
        <time>2012-08-16T16:00:02Z</time>
      </trkpt>
      <trkpt lat="59.9914059" lon="17.7480938">
        <ele>50.6066</ele>
        <time>2012-08-16T16:00:09Z</time>
      </trkpt>
      <trkpt lat="59.9913637" lon="17.7482765">
        <ele>49.1646</ele>
        <time>2012-08-16T16:00:16Z</time>
      </trkpt>
      <trkpt lat="59.9913403" lon="17.7483787">
        <ele>48.684</ele>
        <time>2012-08-16T16:00:21Z</time>
      </trkpt>
      <trkpt lat="59.9913123" lon="17.7485027">
        <ele>48.2034</ele>
        <time>2012-08-16T16:00:26Z</time>
      </trkpt>
      <trkpt lat="59.9912538" lon="17.7487161">
        <ele>48.2034</ele>
        <time>2012-08-16T16:00:34Z</time>
      </trkpt>
      <trkpt lat="59.991237" lon="17.7488865">
        <ele>50.6066</ele>
        <time>2012-08-16T16:00:39Z</time>
      </trkpt>
      <trkpt lat="59.9912119" lon="17.7490193">
        <ele>49.6453</ele>
        <time>2012-08-16T16:00:44Z</time>
      </trkpt>
      <trkpt lat="59.9912015" lon="17.749203">
        <ele>49.6453</ele>
        <time>2012-08-16T16:00:51Z</time>
      </trkpt>
      <trkpt lat="59.9911973" lon="17.7493743">
        <ele>49.1646</ele>
        <time>2012-08-16T16:00:58Z</time>
      </trkpt>
      <trkpt lat="59.9911932" lon="17.7495078">
        <ele>49.1646</ele>
        <time>2012-08-16T16:01:03Z</time>
      </trkpt>
      <trkpt lat="59.9911943" lon="17.7496616">
        <ele>49.1646</ele>
        <time>2012-08-16T16:01:09Z</time>
      </trkpt>
      <trkpt lat="59.9911824" lon="17.7498537">
        <ele>50.126</ele>
        <time>2012-08-16T16:01:16Z</time>
      </trkpt>
      <trkpt lat="59.9911939" lon="17.750052">
        <ele>53.9712</ele>
        <time>2012-08-16T16:01:23Z</time>
      </trkpt>
      <trkpt lat="59.9911829" lon="17.7502164">
        <ele>53.0098</ele>
        <time>2012-08-16T16:01:29Z</time>
      </trkpt>
      <trkpt lat="59.9911916" lon="17.750425">
        <ele>53.4905</ele>
        <time>2012-08-16T16:01:37Z</time>
      </trkpt>
      <trkpt lat="59.99119" lon="17.7506153">
        <ele>53.0098</ele>
        <time>2012-08-16T16:01:44Z</time>
      </trkpt>
      <trkpt lat="59.9911849" lon="17.7506386">
        <ele>53.0098</ele>
        <time>2012-08-16T16:01:45Z</time>
      </trkpt>
      <trkpt lat="59.9911827" lon="17.7508453">
        <ele>53.9712</ele>
        <time>2012-08-16T16:01:53Z</time>
      </trkpt>
      <trkpt lat="59.9911762" lon="17.7510648">
        <ele>53.0098</ele>
        <time>2012-08-16T16:02:01Z</time>
      </trkpt>
      <trkpt lat="59.9911946" lon="17.7513048">
        <ele>53.4905</ele>
        <time>2012-08-16T16:02:10Z</time>
      </trkpt>
      <trkpt lat="59.9912275" lon="17.7515488">
        <ele>53.9712</ele>
        <time>2012-08-16T16:02:19Z</time>
      </trkpt>
      <trkpt lat="59.9912766" lon="17.7517737">
        <ele>55.4131</ele>
        <time>2012-08-16T16:02:27Z</time>
      </trkpt>
      <trkpt lat="59.9913277" lon="17.7520144">
        <ele>55.4131</ele>
        <time>2012-08-16T16:02:36Z</time>
      </trkpt>
      <trkpt lat="59.9913709" lon="17.7522195">
        <ele>55.4131</ele>
        <time>2012-08-16T16:02:44Z</time>
      </trkpt>
      <trkpt lat="59.991405" lon="17.7524031">
        <ele>54.9324</ele>
        <time>2012-08-16T16:02:51Z</time>
      </trkpt>
      <trkpt lat="59.9914494" lon="17.7525775">
        <ele>55.4131</ele>
        <time>2012-08-16T16:02:58Z</time>
      </trkpt>
      <trkpt lat="59.991494" lon="17.752747">
        <ele>55.8938</ele>
        <time>2012-08-16T16:03:05Z</time>
      </trkpt>
      <trkpt lat="59.9915253" lon="17.752932">
        <ele>54.4518</ele>
        <time>2012-08-16T16:03:12Z</time>
      </trkpt>
      <trkpt lat="59.9915527" lon="17.7530726">
        <ele>55.4131</ele>
        <time>2012-08-16T16:03:17Z</time>
      </trkpt>
      <trkpt lat="59.9915875" lon="17.7532696">
        <ele>53.9712</ele>
        <time>2012-08-16T16:03:24Z</time>
      </trkpt>
      <trkpt lat="59.9916092" lon="17.7533768">
        <ele>53.4905</ele>
        <time>2012-08-16T16:03:28Z</time>
      </trkpt>
      <trkpt lat="59.9916703" lon="17.7535851">
        <ele>54.4518</ele>
        <time>2012-08-16T16:03:36Z</time>
      </trkpt>
      <trkpt lat="59.9916946" lon="17.7537514">
        <ele>51.5679</ele>
        <time>2012-08-16T16:03:43Z</time>
      </trkpt>
      <trkpt lat="59.9916997" lon="17.7537783">
        <ele>52.0486</ele>
        <time>2012-08-16T16:03:44Z</time>
      </trkpt>
      <trkpt lat="59.9917675" lon="17.754002">
        <ele>53.4905</ele>
        <time>2012-08-16T16:03:53Z</time>
      </trkpt>
      <trkpt lat="59.9918009" lon="17.7541761">
        <ele>55.8938</ele>
        <time>2012-08-16T16:03:59Z</time>
      </trkpt>
      <trkpt lat="59.9918439" lon="17.7544113">
        <ele>56.3745</ele>
        <time>2012-08-16T16:04:08Z</time>
      </trkpt>
      <trkpt lat="59.9918642" lon="17.754596">
        <ele>54.9324</ele>
        <time>2012-08-16T16:04:15Z</time>
      </trkpt>
      <trkpt lat="59.9919009" lon="17.7548053">
        <ele>54.4518</ele>
        <time>2012-08-16T16:04:23Z</time>
      </trkpt>
      <trkpt lat="59.9919072" lon="17.7548516">
        <ele>53.9712</ele>
        <time>2012-08-16T16:04:25Z</time>
      </trkpt>
      <trkpt lat="59.9919628" lon="17.7550244">
        <ele>57.3358</ele>
        <time>2012-08-16T16:04:31Z</time>
      </trkpt>
      <trkpt lat="59.9919877" lon="17.7551444">
        <ele>57.3358</ele>
        <time>2012-08-16T16:04:35Z</time>
      </trkpt>
      <trkpt lat="59.9920034" lon="17.7552142">
        <ele>58.7777</ele>
        <time>2012-08-16T16:04:38Z</time>
      </trkpt>
      <trkpt lat="59.9920196" lon="17.7552665">
        <ele>59.7391</ele>
        <time>2012-08-16T16:04:40Z</time>
      </trkpt>
      <trkpt lat="59.9920679" lon="17.7554164">
        <ele>61.181</ele>
        <time>2012-08-16T16:04:46Z</time>
      </trkpt>
      <trkpt lat="59.9920683" lon="17.7555176">
        <ele>58.7777</ele>
        <time>2012-08-16T16:04:51Z</time>
      </trkpt>
      <trkpt lat="59.9920835" lon="17.7556706">
        <ele>55.4131</ele>
        <time>2012-08-16T16:04:57Z</time>
      </trkpt>
      <trkpt lat="59.9920987" lon="17.7557443">
        <ele>54.4518</ele>
        <time>2012-08-16T16:05:00Z</time>
      </trkpt>
      <trkpt lat="59.9921302" lon="17.7558467">
        <ele>55.4131</ele>
        <time>2012-08-16T16:05:04Z</time>
      </trkpt>
      <trkpt lat="59.992165" lon="17.7560491">
        <ele>55.4131</ele>
        <time>2012-08-16T16:05:12Z</time>
      </trkpt>
      <trkpt lat="59.9922055" lon="17.7561451">
        <ele>55.8938</ele>
        <time>2012-08-16T16:05:17Z</time>
      </trkpt>
      <trkpt lat="59.9922374" lon="17.7563377">
        <ele>59.2584</ele>
        <time>2012-08-16T16:05:24Z</time>
      </trkpt>
      <trkpt lat="59.992247" lon="17.7564005">
        <ele>58.7777</ele>
        <time>2012-08-16T16:05:27Z</time>
      </trkpt>
      <trkpt lat="59.9922991" lon="17.756579">
        <ele>63.1036</ele>
        <time>2012-08-16T16:05:34Z</time>
      </trkpt>
      <trkpt lat="59.9923748" lon="17.7567929">
        <ele>65.9877</ele>
        <time>2012-08-16T16:05:42Z</time>
      </trkpt>
      <trkpt lat="59.9923888" lon="17.7569709">
        <ele>58.7777</ele>
        <time>2012-08-16T16:05:49Z</time>
      </trkpt>
      <trkpt lat="59.992393" lon="17.7571118">
        <ele>53.9712</ele>
        <time>2012-08-16T16:05:55Z</time>
      </trkpt>
      <trkpt lat="59.9924069" lon="17.7572681">
        <ele>51.0872</ele>
        <time>2012-08-16T16:06:01Z</time>
      </trkpt>
      <trkpt lat="59.9924427" lon="17.7574228">
        <ele>50.126</ele>
        <time>2012-08-16T16:06:07Z</time>
      </trkpt>
      <trkpt lat="59.9924711" lon="17.7575304">
        <ele>50.6066</ele>
        <time>2012-08-16T16:06:11Z</time>
      </trkpt>
      <trkpt lat="59.9925503" lon="17.7577908">
        <ele>56.3745</ele>
        <time>2012-08-16T16:06:20Z</time>
      </trkpt>
      <trkpt lat="59.9925654" lon="17.7580036">
        <ele>53.4905</ele>
        <time>2012-08-16T16:06:28Z</time>
      </trkpt>
      <trkpt lat="59.9925811" lon="17.7581957">
        <ele>50.6066</ele>
        <time>2012-08-16T16:06:36Z</time>
      </trkpt>
      <trkpt lat="59.9926032" lon="17.758399">
        <ele>49.1646</ele>
        <time>2012-08-16T16:06:44Z</time>
      </trkpt>
      <trkpt lat="59.9926512" lon="17.7585985">
        <ele>50.126</ele>
        <time>2012-08-16T16:06:52Z</time>
      </trkpt>
      <trkpt lat="59.9926932" lon="17.7587844">
        <ele>50.6066</ele>
        <time>2012-08-16T16:06:59Z</time>
      </trkpt>
      <trkpt lat="59.9927098" lon="17.7588272">
        <ele>50.6066</ele>
        <time>2012-08-16T16:07:01Z</time>
      </trkpt>
      <trkpt lat="59.9927561" lon="17.759068">
        <ele>50.6066</ele>
        <time>2012-08-16T16:07:11Z</time>
      </trkpt>
      <trkpt lat="59.9928048" lon="17.7592514">
        <ele>51.5679</ele>
        <time>2012-08-16T16:07:18Z</time>
      </trkpt>
      <trkpt lat="59.9928243" lon="17.759362">
        <ele>51.5679</ele>
        <time>2012-08-16T16:07:22Z</time>
      </trkpt>
      <trkpt lat="59.9928773" lon="17.7596204">
        <ele>53.0098</ele>
        <time>2012-08-16T16:07:32Z</time>
      </trkpt>
      <trkpt lat="59.9928927" lon="17.75981">
        <ele>52.5292</ele>
        <time>2012-08-16T16:07:39Z</time>
      </trkpt>
      <trkpt lat="59.9929157" lon="17.7600719">
        <ele>53.9712</ele>
        <time>2012-08-16T16:07:48Z</time>
      </trkpt>
      <trkpt lat="59.9928908" lon="17.7602301">
        <ele>50.6066</ele>
        <time>2012-08-16T16:07:54Z</time>
      </trkpt>
      <trkpt lat="59.9928871" lon="17.7602569">
        <ele>50.126</ele>
        <time>2012-08-16T16:07:55Z</time>
      </trkpt>
      <trkpt lat="59.9928693" lon="17.7603454">
        <ele>48.2034</ele>
        <time>2012-08-16T16:07:59Z</time>
      </trkpt>
      <trkpt lat="59.992833" lon="17.760573">
        <ele>41.474</ele>
        <time>2012-08-16T16:08:08Z</time>
      </trkpt>
      <trkpt lat="59.9928181" lon="17.7607439">
        <ele>43.3966</ele>
        <time>2012-08-16T16:08:15Z</time>
      </trkpt>
      <trkpt lat="59.9928103" lon="17.760977">
        <ele>40.9934</ele>
        <time>2012-08-16T16:08:23Z</time>
      </trkpt>
      <trkpt lat="59.9927996" lon="17.7610511">
        <ele>40.0321</ele>
        <time>2012-08-16T16:08:26Z</time>
      </trkpt>
      <trkpt lat="59.9927706" lon="17.7612158">
        <ele>37.1481</ele>
        <time>2012-08-16T16:08:33Z</time>
      </trkpt>
      <trkpt lat="59.9927523" lon="17.7614481">
        <ele>40.5128</ele>
        <time>2012-08-16T16:08:41Z</time>
      </trkpt>
      <trkpt lat="59.9927474" lon="17.7615109">
        <ele>40.0321</ele>
        <time>2012-08-16T16:08:45Z</time>
      </trkpt>
      <trkpt lat="59.9927172" lon="17.7614187">
        <ele>40.0321</ele>
        <time>2012-08-16T16:08:51Z</time>
      </trkpt>
      <trkpt lat="59.9926966" lon="17.7613996">
        <ele>41.9547</ele>
        <time>2012-08-16T16:08:56Z</time>
      </trkpt>
      <trkpt lat="59.9926649" lon="17.7613882">
        <ele>40.5128</ele>
        <time>2012-08-16T16:09:01Z</time>
      </trkpt>
      <trkpt lat="59.9926317" lon="17.761376">
        <ele>39.5513</ele>
        <time>2012-08-16T16:09:06Z</time>
      </trkpt>
      <trkpt lat="59.9926243" lon="17.7613973">
        <ele>39.5513</ele>
        <time>2012-08-16T16:09:14Z</time>
      </trkpt>
      <trkpt lat="59.992615" lon="17.7614505">
        <ele>41.474</ele>
        <time>2012-08-16T16:09:20Z</time>
      </trkpt>
      <trkpt lat="59.992596" lon="17.7614481">
        <ele>42.4354</ele>
        <time>2012-08-16T16:09:25Z</time>
      </trkpt>
      <trkpt lat="59.9925989" lon="17.7614244">
        <ele>44.8386</ele>
        <time>2012-08-16T16:09:33Z</time>
      </trkpt>
      <trkpt lat="59.9926057" lon="17.761395">
        <ele>42.916</ele>
        <time>2012-08-16T16:09:40Z</time>
      </trkpt>
      <trkpt lat="59.9926255" lon="17.7614304">
        <ele>43.8773</ele>
        <time>2012-08-16T16:09:45Z</time>
      </trkpt>
      <trkpt lat="59.9926457" lon="17.7614443">
        <ele>43.3966</ele>
        <time>2012-08-16T16:09:47Z</time>
      </trkpt>
      <trkpt lat="59.9926766" lon="17.7615158">
        <ele>44.8386</ele>
        <time>2012-08-16T16:09:52Z</time>
      </trkpt>
      <trkpt lat="59.9927027" lon="17.761569">
        <ele>44.8386</ele>
        <time>2012-08-16T16:09:59Z</time>
      </trkpt>
      <trkpt lat="59.9927284" lon="17.7616096">
        <ele>42.4354</ele>
        <time>2012-08-16T16:10:04Z</time>
      </trkpt>
      <trkpt lat="59.9927566" lon="17.7616572">
        <ele>44.358</ele>
        <time>2012-08-16T16:10:08Z</time>
      </trkpt>
      <trkpt lat="59.9927618" lon="17.7617617">
        <ele>46.2806</ele>
        <time>2012-08-16T16:10:13Z</time>
      </trkpt>
      <trkpt lat="59.9927502" lon="17.7618335">
        <ele>45.7999</ele>
        <time>2012-08-16T16:10:16Z</time>
      </trkpt>
      <trkpt lat="59.9927405" lon="17.7619774">
        <ele>46.2806</ele>
        <time>2012-08-16T16:10:22Z</time>
      </trkpt>
      <trkpt lat="59.9927518" lon="17.7620685">
        <ele>50.126</ele>
        <time>2012-08-16T16:10:26Z</time>
      </trkpt>
      <trkpt lat="59.992716" lon="17.7622328">
        <ele>47.2418</ele>
        <time>2012-08-16T16:10:32Z</time>
      </trkpt>
      <trkpt lat="59.9926815" lon="17.7623788">
        <ele>44.358</ele>
        <time>2012-08-16T16:10:37Z</time>
      </trkpt>
      <trkpt lat="59.9926648" lon="17.7625349">
        <ele>40.5128</ele>
        <time>2012-08-16T16:10:43Z</time>
      </trkpt>
      <trkpt lat="59.9926255" lon="17.7626944">
        <ele>41.9547</ele>
        <time>2012-08-16T16:10:50Z</time>
      </trkpt>
      <trkpt lat="59.9926373" lon="17.7628029">
        <ele>42.4354</ele>
        <time>2012-08-16T16:10:53Z</time>
      </trkpt>
      <trkpt lat="59.9926901" lon="17.7629896">
        <ele>46.2806</ele>
        <time>2012-08-16T16:10:58Z</time>
      </trkpt>
      <trkpt lat="59.9926214" lon="17.763105">
        <ele>45.3192</ele>
        <time>2012-08-16T16:11:04Z</time>
      </trkpt>
      <trkpt lat="59.9925541" lon="17.7632468">
        <ele>40.5128</ele>
        <time>2012-08-16T16:11:10Z</time>
      </trkpt>
      <trkpt lat="59.9925279" lon="17.7632901">
        <ele>39.5513</ele>
        <time>2012-08-16T16:11:12Z</time>
      </trkpt>
      <trkpt lat="59.9924862" lon="17.7634193">
        <ele>39.5513</ele>
        <time>2012-08-16T16:11:17Z</time>
      </trkpt>
      <trkpt lat="59.9923924" lon="17.7635804">
        <ele>38.5901</ele>
        <time>2012-08-16T16:11:24Z</time>
      </trkpt>
      <trkpt lat="59.9923158" lon="17.7637184">
        <ele>39.0707</ele>
        <time>2012-08-16T16:11:32Z</time>
      </trkpt>
      <trkpt lat="59.9922692" lon="17.763784">
        <ele>38.5901</ele>
        <time>2012-08-16T16:11:36Z</time>
      </trkpt>
      <trkpt lat="59.9922356" lon="17.7638498">
        <ele>34.7449</ele>
        <time>2012-08-16T16:11:40Z</time>
      </trkpt>
      <trkpt lat="59.9922044" lon="17.7639352">
        <ele>32.3416</ele>
        <time>2012-08-16T16:11:45Z</time>
      </trkpt>
      <trkpt lat="59.9921216" lon="17.7640853">
        <ele>32.8223</ele>
        <time>2012-08-16T16:11:54Z</time>
      </trkpt>
      <trkpt lat="59.9920876" lon="17.7641639">
        <ele>35.2255</ele>
        <time>2012-08-16T16:11:59Z</time>
      </trkpt>
      <trkpt lat="59.9920438" lon="17.7641992">
        <ele>34.2642</ele>
        <time>2012-08-16T16:12:03Z</time>
      </trkpt>
      <trkpt lat="59.9919982" lon="17.7643197">
        <ele>33.7834</ele>
        <time>2012-08-16T16:12:09Z</time>
      </trkpt>
      <trkpt lat="59.9919319" lon="17.7644503">
        <ele>36.1868</ele>
        <time>2012-08-16T16:12:15Z</time>
      </trkpt>
      <trkpt lat="59.9918232" lon="17.7645634">
        <ele>34.7449</ele>
        <time>2012-08-16T16:12:22Z</time>
      </trkpt>
      <trkpt lat="59.991805" lon="17.7645901">
        <ele>33.3029</ele>
        <time>2012-08-16T16:12:23Z</time>
      </trkpt>
      <trkpt lat="59.9917202" lon="17.7646913">
        <ele>29.9381</ele>
        <time>2012-08-16T16:12:29Z</time>
      </trkpt>
      <trkpt lat="59.9917107" lon="17.7647162">
        <ele>29.4575</ele>
        <time>2012-08-16T16:12:30Z</time>
      </trkpt>
      <trkpt lat="59.9916137" lon="17.7649233">
        <ele>30.4188</ele>
        <time>2012-08-16T16:12:41Z</time>
      </trkpt>
      <trkpt lat="59.9915974" lon="17.7649548">
        <ele>31.3801</ele>
        <time>2012-08-16T16:12:44Z</time>
      </trkpt>
      <trkpt lat="59.9915253" lon="17.7650124">
        <ele>30.8995</ele>
        <time>2012-08-16T16:12:50Z</time>
      </trkpt>
      <trkpt lat="59.9914408" lon="17.7649547">
        <ele>32.3416</ele>
        <time>2012-08-16T16:12:55Z</time>
      </trkpt>
      <trkpt lat="59.9913885" lon="17.7648736">
        <ele>30.8995</ele>
        <time>2012-08-16T16:13:01Z</time>
      </trkpt>
      <trkpt lat="59.9913805" lon="17.7648388">
        <ele>31.3801</ele>
        <time>2012-08-16T16:13:03Z</time>
      </trkpt>
      <trkpt lat="59.9913279" lon="17.7647026">
        <ele>33.7834</ele>
        <time>2012-08-16T16:13:09Z</time>
      </trkpt>
      <trkpt lat="59.9912983" lon="17.76457">
        <ele>33.7834</ele>
        <time>2012-08-16T16:13:15Z</time>
      </trkpt>
      <trkpt lat="59.9912619" lon="17.7644742">
        <ele>34.2642</ele>
        <time>2012-08-16T16:13:20Z</time>
      </trkpt>
      <trkpt lat="59.9912072" lon="17.7643435">
        <ele>34.7449</ele>
        <time>2012-08-16T16:13:25Z</time>
      </trkpt>
      <trkpt lat="59.9911648" lon="17.7641821">
        <ele>33.7834</ele>
        <time>2012-08-16T16:13:31Z</time>
      </trkpt>
      <trkpt lat="59.9911195" lon="17.7641018">
        <ele>34.2642</ele>
        <time>2012-08-16T16:13:36Z</time>
      </trkpt>
      <trkpt lat="59.9910819" lon="17.764024">
        <ele>40.0321</ele>
        <time>2012-08-16T16:13:41Z</time>
      </trkpt>
      <trkpt lat="59.9910512" lon="17.763977">
        <ele>39.5513</ele>
        <time>2012-08-16T16:13:45Z</time>
      </trkpt>
      <trkpt lat="59.9909819" lon="17.7638805">
        <ele>41.474</ele>
        <time>2012-08-16T16:13:52Z</time>
      </trkpt>
      <trkpt lat="59.9909062" lon="17.7637925">
        <ele>35.2255</ele>
        <time>2012-08-16T16:13:58Z</time>
      </trkpt>
      <trkpt lat="59.9908318" lon="17.7637049">
        <ele>33.7834</ele>
        <time>2012-08-16T16:14:03Z</time>
      </trkpt>
      <trkpt lat="59.990766" lon="17.7636018">
        <ele>33.3029</ele>
        <time>2012-08-16T16:14:10Z</time>
      </trkpt>
      <trkpt lat="59.9906737" lon="17.7635385">
        <ele>37.6287</ele>
        <time>2012-08-16T16:14:16Z</time>
      </trkpt>
      <trkpt lat="59.9906017" lon="17.7634438">
        <ele>42.916</ele>
        <time>2012-08-16T16:14:22Z</time>
      </trkpt>
      <trkpt lat="59.9905084" lon="17.7632961">
        <ele>46.7612</ele>
        <time>2012-08-16T16:14:28Z</time>
      </trkpt>
      <trkpt lat="59.9904155" lon="17.7632484">
        <ele>52.5292</ele>
        <time>2012-08-16T16:14:34Z</time>
      </trkpt>
      <trkpt lat="59.9903417" lon="17.7631458">
        <ele>51.5679</ele>
        <time>2012-08-16T16:14:40Z</time>
      </trkpt>
      <trkpt lat="59.9903343" lon="17.7631279">
        <ele>50.6066</ele>
        <time>2012-08-16T16:14:41Z</time>
      </trkpt>
      <trkpt lat="59.9902825" lon="17.763038">
        <ele>49.6453</ele>
        <time>2012-08-16T16:14:47Z</time>
      </trkpt>
      <trkpt lat="59.9902339" lon="17.7629605">
        <ele>47.2418</ele>
        <time>2012-08-16T16:14:52Z</time>
      </trkpt>
      <trkpt lat="59.9901634" lon="17.7628932">
        <ele>43.8773</ele>
        <time>2012-08-16T16:14:58Z</time>
      </trkpt>
      <trkpt lat="59.9900998" lon="17.7628347">
        <ele>42.916</ele>
        <time>2012-08-16T16:15:02Z</time>
      </trkpt>
      <trkpt lat="59.9899997" lon="17.7627901">
        <ele>43.3966</ele>
        <time>2012-08-16T16:15:09Z</time>
      </trkpt>
      <trkpt lat="59.9899925" lon="17.762773">
        <ele>43.3966</ele>
        <time>2012-08-16T16:15:10Z</time>
      </trkpt>
      <trkpt lat="59.9898915" lon="17.7626565">
        <ele>39.5513</ele>
        <time>2012-08-16T16:15:19Z</time>
      </trkpt>
      <trkpt lat="59.9898117" lon="17.7625825">
        <ele>39.5513</ele>
        <time>2012-08-16T16:15:26Z</time>
      </trkpt>
      <trkpt lat="59.9897934" lon="17.7625452">
        <ele>38.5901</ele>
        <time>2012-08-16T16:15:28Z</time>
      </trkpt>
      <trkpt lat="59.9897048" lon="17.7624746">
        <ele>41.474</ele>
        <time>2012-08-16T16:15:35Z</time>
      </trkpt>
      <trkpt lat="59.9896433" lon="17.7624679">
        <ele>43.8773</ele>
        <time>2012-08-16T16:15:39Z</time>
      </trkpt>
      <trkpt lat="59.989546" lon="17.7624591">
        <ele>45.7999</ele>
        <time>2012-08-16T16:15:46Z</time>
      </trkpt>
      <trkpt lat="59.9894967" lon="17.7624679">
        <ele>40.9934</ele>
        <time>2012-08-16T16:15:50Z</time>
      </trkpt>
      <trkpt lat="59.9893682" lon="17.7625017">
        <ele>41.474</ele>
        <time>2012-08-16T16:15:57Z</time>
      </trkpt>
      <trkpt lat="59.989351" lon="17.7624998">
        <ele>42.916</ele>
        <time>2012-08-16T16:15:58Z</time>
      </trkpt>
      <trkpt lat="59.9892878" lon="17.7625083">
        <ele>44.8386</ele>
        <time>2012-08-16T16:16:03Z</time>
      </trkpt>
      <trkpt lat="59.9892226" lon="17.7625316">
        <ele>42.916</ele>
        <time>2012-08-16T16:16:09Z</time>
      </trkpt>
      <trkpt lat="59.9891604" lon="17.7625477">
        <ele>41.9547</ele>
        <time>2012-08-16T16:16:13Z</time>
      </trkpt>
      <trkpt lat="59.9890715" lon="17.7625413">
        <ele>45.3192</ele>
        <time>2012-08-16T16:16:20Z</time>
      </trkpt>
      <trkpt lat="59.9890041" lon="17.7625322">
        <ele>45.3192</ele>
        <time>2012-08-16T16:16:25Z</time>
      </trkpt>
      <trkpt lat="59.9889554" lon="17.7625224">
        <ele>42.916</ele>
        <time>2012-08-16T16:16:29Z</time>
      </trkpt>
      <trkpt lat="59.9888254" lon="17.7624378">
        <ele>40.5128</ele>
        <time>2012-08-16T16:16:38Z</time>
      </trkpt>
      <trkpt lat="59.9888125" lon="17.7624287">
        <ele>40.0321</ele>
        <time>2012-08-16T16:16:39Z</time>
      </trkpt>
      <trkpt lat="59.9886911" lon="17.7623403">
        <ele>38.1094</ele>
        <time>2012-08-16T16:16:47Z</time>
      </trkpt>
      <trkpt lat="59.9886216" lon="17.7622698">
        <ele>35.7061</ele>
        <time>2012-08-16T16:16:53Z</time>
      </trkpt>
      <trkpt lat="59.9886125" lon="17.7622574">
        <ele>35.7061</ele>
        <time>2012-08-16T16:16:54Z</time>
      </trkpt>
      <trkpt lat="59.988555" lon="17.7621804">
        <ele>32.8223</ele>
        <time>2012-08-16T16:17:00Z</time>
      </trkpt>
      <trkpt lat="59.9885194" lon="17.7621441">
        <ele>32.8223</ele>
        <time>2012-08-16T16:17:03Z</time>
      </trkpt>
      <trkpt lat="59.9884149" lon="17.7620244">
        <ele>35.7061</ele>
        <time>2012-08-16T16:17:11Z</time>
      </trkpt>
      <trkpt lat="59.9883531" lon="17.7619846">
        <ele>37.6287</ele>
        <time>2012-08-16T16:17:16Z</time>
      </trkpt>
      <trkpt lat="59.9883338" lon="17.7619645">
        <ele>38.1094</ele>
        <time>2012-08-16T16:17:18Z</time>
      </trkpt>
      <trkpt lat="59.9882053" lon="17.7619363">
        <ele>40.5128</ele>
        <time>2012-08-16T16:17:26Z</time>
      </trkpt>
      <trkpt lat="59.9881275" lon="17.7619094">
        <ele>39.0707</ele>
        <time>2012-08-16T16:17:32Z</time>
      </trkpt>
      <trkpt lat="59.9881002" lon="17.7619022">
        <ele>38.1094</ele>
        <time>2012-08-16T16:17:34Z</time>
      </trkpt>
      <trkpt lat="59.9880159" lon="17.7619068">
        <ele>36.1868</ele>
        <time>2012-08-16T16:17:40Z</time>
      </trkpt>
      <trkpt lat="59.9878903" lon="17.7618468">
        <ele>36.1868</ele>
        <time>2012-08-16T16:17:49Z</time>
      </trkpt>
      <trkpt lat="59.9877889" lon="17.7617601">
        <ele>35.7061</ele>
        <time>2012-08-16T16:17:57Z</time>
      </trkpt>
      <trkpt lat="59.987692" lon="17.7616451">
        <ele>36.1868</ele>
        <time>2012-08-16T16:18:04Z</time>
      </trkpt>
      <trkpt lat="59.9876475" lon="17.7615817">
        <ele>36.1868</ele>
        <time>2012-08-16T16:18:08Z</time>
      </trkpt>
      <trkpt lat="59.9875916" lon="17.7614076">
        <ele>36.6675</ele>
        <time>2012-08-16T16:18:16Z</time>
      </trkpt>
      <trkpt lat="59.9875416" lon="17.761235">
        <ele>36.6675</ele>
        <time>2012-08-16T16:18:24Z</time>
      </trkpt>
      <trkpt lat="59.9874821" lon="17.7610522">
        <ele>40.0321</ele>
        <time>2012-08-16T16:18:31Z</time>
      </trkpt>
      <trkpt lat="59.9874718" lon="17.7610302">
        <ele>40.5128</ele>
        <time>2012-08-16T16:18:32Z</time>
      </trkpt>
      <trkpt lat="59.9874364" lon="17.7607832">
        <ele>41.9547</ele>
        <time>2012-08-16T16:18:41Z</time>
      </trkpt>
      <trkpt lat="59.9874314" lon="17.7607526">
        <ele>42.4354</ele>
        <time>2012-08-16T16:18:42Z</time>
      </trkpt>
      <trkpt lat="59.9874164" lon="17.7606419">
        <ele>42.916</ele>
        <time>2012-08-16T16:18:46Z</time>
      </trkpt>
      <trkpt lat="59.9873867" lon="17.7604319">
        <ele>41.9547</ele>
        <time>2012-08-16T16:18:55Z</time>
      </trkpt>
      <trkpt lat="59.98738" lon="17.7602467">
        <ele>40.0321</ele>
        <time>2012-08-16T16:19:02Z</time>
      </trkpt>
      <trkpt lat="59.9873765" lon="17.7600555">
        <ele>38.5901</ele>
        <time>2012-08-16T16:19:09Z</time>
      </trkpt>
      <trkpt lat="59.9873663" lon="17.7599364">
        <ele>38.1094</ele>
        <time>2012-08-16T16:19:13Z</time>
      </trkpt>
      <trkpt lat="59.9873449" lon="17.7598041">
        <ele>37.6287</ele>
        <time>2012-08-16T16:19:19Z</time>
      </trkpt>
      <trkpt lat="59.9873404" lon="17.7597805">
        <ele>38.1094</ele>
        <time>2012-08-16T16:19:20Z</time>
      </trkpt>
      <trkpt lat="59.9873067" lon="17.7596288">
        <ele>38.5901</ele>
        <time>2012-08-16T16:19:25Z</time>
      </trkpt>
      <trkpt lat="59.9872481" lon="17.7594618">
        <ele>40.9934</ele>
        <time>2012-08-16T16:19:32Z</time>
      </trkpt>
      <trkpt lat="59.987205" lon="17.7593112">
        <ele>40.0321</ele>
        <time>2012-08-16T16:19:38Z</time>
      </trkpt>
      <trkpt lat="59.9871728" lon="17.7592029">
        <ele>40.5128</ele>
        <time>2012-08-16T16:19:42Z</time>
      </trkpt>
      <trkpt lat="59.9871327" lon="17.7591142">
        <ele>41.474</ele>
        <time>2012-08-16T16:19:46Z</time>
      </trkpt>
      <trkpt lat="59.9870925" lon="17.7590023">
        <ele>40.0321</ele>
        <time>2012-08-16T16:19:51Z</time>
      </trkpt>
      <trkpt lat="59.9870677" lon="17.7589183">
        <ele>39.5513</ele>
        <time>2012-08-16T16:19:55Z</time>
      </trkpt>
      <trkpt lat="59.9870389" lon="17.758751">
        <ele>39.5513</ele>
        <time>2012-08-16T16:20:03Z</time>
      </trkpt>
      <trkpt lat="59.9870068" lon="17.7586379">
        <ele>41.9547</ele>
        <time>2012-08-16T16:20:08Z</time>
      </trkpt>
      <trkpt lat="59.9869925" lon="17.7585974">
        <ele>43.3966</ele>
        <time>2012-08-16T16:20:10Z</time>
      </trkpt>
      <trkpt lat="59.9869282" lon="17.7584428">
        <ele>41.9547</ele>
        <time>2012-08-16T16:20:17Z</time>
      </trkpt>
      <trkpt lat="59.9869211" lon="17.758418">
        <ele>41.474</ele>
        <time>2012-08-16T16:20:18Z</time>
      </trkpt>
      <trkpt lat="59.9868716" lon="17.7582985">
        <ele>40.5128</ele>
        <time>2012-08-16T16:20:24Z</time>
      </trkpt>
      <trkpt lat="59.986859" lon="17.7582604">
        <ele>39.5513</ele>
        <time>2012-08-16T16:20:26Z</time>
      </trkpt>
      <trkpt lat="59.9868176" lon="17.7582139">
        <ele>38.5901</ele>
        <time>2012-08-16T16:20:30Z</time>
      </trkpt>
      <trkpt lat="59.9867233" lon="17.7581052">
        <ele>37.6287</ele>
        <time>2012-08-16T16:20:36Z</time>
      </trkpt>
      <trkpt lat="59.9866781" lon="17.7579954">
        <ele>35.7061</ele>
        <time>2012-08-16T16:20:43Z</time>
      </trkpt>
      <trkpt lat="59.9866704" lon="17.7579828">
        <ele>34.7449</ele>
        <time>2012-08-16T16:20:44Z</time>
      </trkpt>
      <trkpt lat="59.9866467" lon="17.7578704">
        <ele>37.6287</ele>
        <time>2012-08-16T16:20:48Z</time>
      </trkpt>
      <trkpt lat="59.9866197" lon="17.7577086">
        <ele>39.5513</ele>
        <time>2012-08-16T16:20:55Z</time>
      </trkpt>
      <trkpt lat="59.9866119" lon="17.7576624">
        <ele>38.5901</ele>
        <time>2012-08-16T16:20:57Z</time>
      </trkpt>
      <trkpt lat="59.986585" lon="17.7575505">
        <ele>37.6287</ele>
        <time>2012-08-16T16:21:02Z</time>
      </trkpt>
      <trkpt lat="59.9865419" lon="17.7573793">
        <ele>35.2255</ele>
        <time>2012-08-16T16:21:10Z</time>
      </trkpt>
      <trkpt lat="59.9865116" lon="17.7573184">
        <ele>34.7449</ele>
        <time>2012-08-16T16:21:14Z</time>
      </trkpt>
      <trkpt lat="59.9865025" lon="17.7572966">
        <ele>34.2642</ele>
        <time>2012-08-16T16:21:15Z</time>
      </trkpt>
      <trkpt lat="59.9864867" lon="17.7572446">
        <ele>33.3029</ele>
        <time>2012-08-16T16:21:17Z</time>
      </trkpt>
      <trkpt lat="59.9864594" lon="17.7571478">
        <ele>33.7834</ele>
        <time>2012-08-16T16:21:21Z</time>
      </trkpt>
      <trkpt lat="59.9864006" lon="17.7570133">
        <ele>33.3029</ele>
        <time>2012-08-16T16:21:27Z</time>
      </trkpt>
      <trkpt lat="59.9863955" lon="17.7569923">
        <ele>33.3029</ele>
        <time>2012-08-16T16:21:28Z</time>
      </trkpt>
      <trkpt lat="59.9863321" lon="17.7568797">
        <ele>33.7834</ele>
        <time>2012-08-16T16:21:35Z</time>
      </trkpt>
      <trkpt lat="59.9863128" lon="17.7567594">
        <ele>34.2642</ele>
        <time>2012-08-16T16:21:40Z</time>
      </trkpt>
      <trkpt lat="59.9862995" lon="17.7566729">
        <ele>35.2255</ele>
        <time>2012-08-16T16:21:45Z</time>
      </trkpt>
      <trkpt lat="59.9862685" lon="17.7565158">
        <ele>38.5901</ele>
        <time>2012-08-16T16:21:52Z</time>
      </trkpt>
      <trkpt lat="59.9862555" lon="17.7564409">
        <ele>38.5901</ele>
        <time>2012-08-16T16:21:55Z</time>
      </trkpt>
      <trkpt lat="59.9862243" lon="17.756272">
        <ele>39.0707</ele>
        <time>2012-08-16T16:22:02Z</time>
      </trkpt>
      <trkpt lat="59.9861955" lon="17.7561065">
        <ele>38.1094</ele>
        <time>2012-08-16T16:22:08Z</time>
      </trkpt>
      <trkpt lat="59.9861555" lon="17.7559058">
        <ele>37.1481</ele>
        <time>2012-08-16T16:22:16Z</time>
      </trkpt>
      <trkpt lat="59.98613" lon="17.7557883">
        <ele>37.6287</ele>
        <time>2012-08-16T16:22:21Z</time>
      </trkpt>
      <trkpt lat="59.9861077" lon="17.7556381">
        <ele>34.7449</ele>
        <time>2012-08-16T16:22:27Z</time>
      </trkpt>
      <trkpt lat="59.9860794" lon="17.7555">
        <ele>32.3416</ele>
        <time>2012-08-16T16:22:32Z</time>
      </trkpt>
      <trkpt lat="59.986042" lon="17.7553437">
        <ele>34.7449</ele>
        <time>2012-08-16T16:22:38Z</time>
      </trkpt>
      <trkpt lat="59.9860126" lon="17.7552097">
        <ele>33.7834</ele>
        <time>2012-08-16T16:22:44Z</time>
      </trkpt>
      <trkpt lat="59.9859883" lon="17.7550529">
        <ele>33.3029</ele>
        <time>2012-08-16T16:22:51Z</time>
      </trkpt>
      <trkpt lat="59.9859789" lon="17.7549826">
        <ele>33.7834</ele>
        <time>2012-08-16T16:22:54Z</time>
      </trkpt>
      <trkpt lat="59.985938" lon="17.7548597">
        <ele>34.2642</ele>
        <time>2012-08-16T16:22:59Z</time>
      </trkpt>
      <trkpt lat="59.9859301" lon="17.754769">
        <ele>36.1868</ele>
        <time>2012-08-16T16:23:03Z</time>
      </trkpt>
      <trkpt lat="59.9858945" lon="17.754675">
        <ele>37.1481</ele>
        <time>2012-08-16T16:23:08Z</time>
      </trkpt>
      <trkpt lat="59.9858062" lon="17.7544925">
        <ele>37.1481</ele>
        <time>2012-08-16T16:23:16Z</time>
      </trkpt>
      <trkpt lat="59.9857465" lon="17.7543932">
        <ele>36.1868</ele>
        <time>2012-08-16T16:23:21Z</time>
      </trkpt>
      <trkpt lat="59.985677" lon="17.754278">
        <ele>34.2642</ele>
        <time>2012-08-16T16:23:28Z</time>
      </trkpt>
      <trkpt lat="59.9856546" lon="17.754213">
        <ele>34.2642</ele>
        <time>2012-08-16T16:23:32Z</time>
      </trkpt>
      <trkpt lat="59.9856153" lon="17.7541602">
        <ele>32.8223</ele>
        <time>2012-08-16T16:23:36Z</time>
      </trkpt>
      <trkpt lat="59.9855218" lon="17.7540801">
        <ele>31.3801</ele>
        <time>2012-08-16T16:23:42Z</time>
      </trkpt>
      <trkpt lat="59.9854873" lon="17.7540363">
        <ele>30.8995</ele>
        <time>2012-08-16T16:23:46Z</time>
      </trkpt>
      <trkpt lat="59.9854265" lon="17.7539442">
        <ele>33.3029</ele>
        <time>2012-08-16T16:23:52Z</time>
      </trkpt>
      <trkpt lat="59.9853919" lon="17.753844">
        <ele>40.0321</ele>
        <time>2012-08-16T16:23:56Z</time>
      </trkpt>
      <trkpt lat="59.9853817" lon="17.7537725">
        <ele>41.9547</ele>
        <time>2012-08-16T16:23:59Z</time>
      </trkpt>
      <trkpt lat="59.9853709" lon="17.7537261">
        <ele>43.3966</ele>
        <time>2012-08-16T16:24:01Z</time>
      </trkpt>
      <trkpt lat="59.9853356" lon="17.7535695">
        <ele>41.9547</ele>
        <time>2012-08-16T16:24:07Z</time>
      </trkpt>
      <trkpt lat="59.985295" lon="17.7533913">
        <ele>39.5513</ele>
        <time>2012-08-16T16:24:14Z</time>
      </trkpt>
      <trkpt lat="59.9852258" lon="17.7532852">
        <ele>40.5128</ele>
        <time>2012-08-16T16:24:20Z</time>
      </trkpt>
      <trkpt lat="59.9852051" lon="17.7531656">
        <ele>39.0707</ele>
        <time>2012-08-16T16:24:25Z</time>
      </trkpt>
      <trkpt lat="59.9851981" lon="17.7531184">
        <ele>37.1481</ele>
        <time>2012-08-16T16:24:27Z</time>
      </trkpt>
      <trkpt lat="59.9851782" lon="17.7530487">
        <ele>38.1094</ele>
        <time>2012-08-16T16:24:30Z</time>
      </trkpt>
      <trkpt lat="59.9851372" lon="17.7529215">
        <ele>39.5513</ele>
        <time>2012-08-16T16:24:35Z</time>
      </trkpt>
      <trkpt lat="59.9850854" lon="17.7528045">
        <ele>40.0321</ele>
        <time>2012-08-16T16:24:40Z</time>
      </trkpt>
      <trkpt lat="59.9850667" lon="17.7527498">
        <ele>39.5513</ele>
        <time>2012-08-16T16:24:43Z</time>
      </trkpt>
      <trkpt lat="59.9850292" lon="17.7526947">
        <ele>36.6675</ele>
        <time>2012-08-16T16:24:49Z</time>
      </trkpt>
      <trkpt lat="59.985004" lon="17.7526885">
        <ele>36.1868</ele>
        <time>2012-08-16T16:24:51Z</time>
      </trkpt>
      <trkpt lat="59.9849481" lon="17.7525522">
        <ele>35.7061</ele>
        <time>2012-08-16T16:24:57Z</time>
      </trkpt>
      <trkpt lat="59.9849443" lon="17.7525189">
        <ele>36.6675</ele>
        <time>2012-08-16T16:24:58Z</time>
      </trkpt>
      <trkpt lat="59.9849221" lon="17.7524308">
        <ele>36.6675</ele>
        <time>2012-08-16T16:25:01Z</time>
      </trkpt>
      <trkpt lat="59.9848973" lon="17.7523482">
        <ele>35.2255</ele>
        <time>2012-08-16T16:25:05Z</time>
      </trkpt>
      <trkpt lat="59.9848585" lon="17.7522292">
        <ele>32.8223</ele>
        <time>2012-08-16T16:25:10Z</time>
      </trkpt>
      <trkpt lat="59.9847911" lon="17.7520643">
        <ele>32.8223</ele>
        <time>2012-08-16T16:25:17Z</time>
      </trkpt>
      <trkpt lat="59.9847495" lon="17.7519963">
        <ele>33.7834</ele>
        <time>2012-08-16T16:25:21Z</time>
      </trkpt>
      <trkpt lat="59.9847172" lon="17.7519554">
        <ele>32.8223</ele>
        <time>2012-08-16T16:25:24Z</time>
      </trkpt>
      <trkpt lat="59.9846466" lon="17.7518886">
        <ele>30.8995</ele>
        <time>2012-08-16T16:25:30Z</time>
      </trkpt>
      <trkpt lat="59.9846384" lon="17.7518833">
        <ele>30.8995</ele>
        <time>2012-08-16T16:25:31Z</time>
      </trkpt>
      <trkpt lat="59.9845699" lon="17.7518026">
        <ele>30.4188</ele>
        <time>2012-08-16T16:25:37Z</time>
      </trkpt>
      <trkpt lat="59.9844643" lon="17.7516926">
        <ele>33.3029</ele>
        <time>2012-08-16T16:25:44Z</time>
      </trkpt>
      <trkpt lat="59.9843855" lon="17.7516107">
        <ele>35.7061</ele>
        <time>2012-08-16T16:25:51Z</time>
      </trkpt>
      <trkpt lat="59.9843519" lon="17.7515854">
        <ele>37.1481</ele>
        <time>2012-08-16T16:25:54Z</time>
      </trkpt>
      <trkpt lat="59.984261" lon="17.7515489">
        <ele>41.9547</ele>
        <time>2012-08-16T16:26:01Z</time>
      </trkpt>
      <trkpt lat="59.9842471" lon="17.7515296">
        <ele>44.358</ele>
        <time>2012-08-16T16:26:02Z</time>
      </trkpt>
      <trkpt lat="59.9842171" lon="17.7515095">
        <ele>45.3192</ele>
        <time>2012-08-16T16:26:04Z</time>
      </trkpt>
      <trkpt lat="59.9841567" lon="17.7514992">
        <ele>44.8386</ele>
        <time>2012-08-16T16:26:08Z</time>
      </trkpt>
      <trkpt lat="59.9840586" lon="17.7514705">
        <ele>45.7999</ele>
        <time>2012-08-16T16:26:15Z</time>
      </trkpt>
      <trkpt lat="59.9839985" lon="17.7514127">
        <ele>40.0321</ele>
        <time>2012-08-16T16:26:20Z</time>
      </trkpt>
      <trkpt lat="59.9839609" lon="17.7513541">
        <ele>40.9934</ele>
        <time>2012-08-16T16:26:25Z</time>
      </trkpt>
      <trkpt lat="59.9839026" lon="17.7512187">
        <ele>36.6675</ele>
        <time>2012-08-16T16:26:32Z</time>
      </trkpt>
      <trkpt lat="59.9838371" lon="17.7510376">
        <ele>38.1094</ele>
        <time>2012-08-16T16:26:40Z</time>
      </trkpt>
      <trkpt lat="59.9837844" lon="17.750962">
        <ele>39.5513</ele>
        <time>2012-08-16T16:26:45Z</time>
      </trkpt>
      <trkpt lat="59.9837401" lon="17.7509079">
        <ele>40.0321</ele>
        <time>2012-08-16T16:26:49Z</time>
      </trkpt>
      <trkpt lat="59.9837045" lon="17.7508332">
        <ele>40.0321</ele>
        <time>2012-08-16T16:26:53Z</time>
      </trkpt>
      <trkpt lat="59.9836349" lon="17.7506967">
        <ele>39.5513</ele>
        <time>2012-08-16T16:27:00Z</time>
      </trkpt>
      <trkpt lat="59.9835965" lon="17.7506055">
        <ele>41.9547</ele>
        <time>2012-08-16T16:27:05Z</time>
      </trkpt>
      <trkpt lat="59.9835193" lon="17.7503891">
        <ele>40.0321</ele>
        <time>2012-08-16T16:27:13Z</time>
      </trkpt>
      <trkpt lat="59.9835033" lon="17.7503395">
        <ele>38.5901</ele>
        <time>2012-08-16T16:27:17Z</time>
      </trkpt>
      <trkpt lat="59.9834478" lon="17.7502703">
        <ele>37.6287</ele>
        <time>2012-08-16T16:27:22Z</time>
      </trkpt>
      <trkpt lat="59.983388" lon="17.7501147">
        <ele>32.8223</ele>
        <time>2012-08-16T16:27:29Z</time>
      </trkpt>
      <trkpt lat="59.9832727" lon="17.7500467">
        <ele>37.1481</ele>
        <time>2012-08-16T16:27:37Z</time>
      </trkpt>
      <trkpt lat="59.9831815" lon="17.7498946">
        <ele>39.0707</ele>
        <time>2012-08-16T16:27:45Z</time>
      </trkpt>
      <trkpt lat="59.9831164" lon="17.7498238">
        <ele>39.5513</ele>
        <time>2012-08-16T16:27:50Z</time>
      </trkpt>
      <trkpt lat="59.9830489" lon="17.749617">
        <ele>41.474</ele>
        <time>2012-08-16T16:27:58Z</time>
      </trkpt>
      <trkpt lat="59.9830154" lon="17.7495097">
        <ele>40.5128</ele>
        <time>2012-08-16T16:28:03Z</time>
      </trkpt>
      <trkpt lat="59.9830004" lon="17.7494887">
        <ele>39.5513</ele>
        <time>2012-08-16T16:28:05Z</time>
      </trkpt>
      <trkpt lat="59.9829423" lon="17.7494382">
        <ele>41.9547</ele>
        <time>2012-08-16T16:28:11Z</time>
      </trkpt>
      <trkpt lat="59.9829313" lon="17.7494263">
        <ele>42.916</ele>
        <time>2012-08-16T16:28:12Z</time>
      </trkpt>
      <trkpt lat="59.9828671" lon="17.7492927">
        <ele>44.358</ele>
        <time>2012-08-16T16:28:18Z</time>
      </trkpt>
      <trkpt lat="59.9827894" lon="17.7491404">
        <ele>45.7999</ele>
        <time>2012-08-16T16:28:25Z</time>
      </trkpt>
      <trkpt lat="59.9827636" lon="17.7490899">
        <ele>45.3192</ele>
        <time>2012-08-16T16:28:28Z</time>
      </trkpt>
      <trkpt lat="59.9827409" lon="17.7490338">
        <ele>47.2418</ele>
        <time>2012-08-16T16:28:32Z</time>
      </trkpt>
      <trkpt lat="59.9827087" lon="17.7489915">
        <ele>45.7999</ele>
        <time>2012-08-16T16:28:35Z</time>
      </trkpt>
      <trkpt lat="59.9826982" lon="17.7489499">
        <ele>45.3192</ele>
        <time>2012-08-16T16:28:37Z</time>
      </trkpt>
      <trkpt lat="59.9826622" lon="17.7488477">
        <ele>44.8386</ele>
        <time>2012-08-16T16:28:42Z</time>
      </trkpt>
      <trkpt lat="59.9825694" lon="17.7486852">
        <ele>42.4354</ele>
        <time>2012-08-16T16:28:51Z</time>
      </trkpt>
      <trkpt lat="59.9825631" lon="17.7486681">
        <ele>41.474</ele>
        <time>2012-08-16T16:28:52Z</time>
      </trkpt>
      <trkpt lat="59.9824954" lon="17.7485273">
        <ele>39.5513</ele>
        <time>2012-08-16T16:28:59Z</time>
      </trkpt>
      <trkpt lat="59.9824143" lon="17.7483739">
        <ele>37.1481</ele>
        <time>2012-08-16T16:29:06Z</time>
      </trkpt>
      <trkpt lat="59.9823696" lon="17.7482725">
        <ele>37.6287</ele>
        <time>2012-08-16T16:29:10Z</time>
      </trkpt>
      <trkpt lat="59.9823481" lon="17.7482242">
        <ele>42.916</ele>
        <time>2012-08-16T16:29:16Z</time>
      </trkpt>
      <trkpt lat="59.9823368" lon="17.7482141">
        <ele>42.916</ele>
        <time>2012-08-16T16:29:17Z</time>
      </trkpt>
      <trkpt lat="59.982298" lon="17.7481388">
        <ele>46.7612</ele>
        <time>2012-08-16T16:29:22Z</time>
      </trkpt>
      <trkpt lat="59.9822828" lon="17.7481329">
        <ele>46.7612</ele>
        <time>2012-08-16T16:29:24Z</time>
      </trkpt>
      <trkpt lat="59.9822379" lon="17.7480385">
        <ele>52.0486</ele>
        <time>2012-08-16T16:29:29Z</time>
      </trkpt>
      <trkpt lat="59.9821595" lon="17.7480174">
        <ele>49.6453</ele>
        <time>2012-08-16T16:29:34Z</time>
      </trkpt>
      <trkpt lat="59.9820694" lon="17.7479585">
        <ele>45.7999</ele>
        <time>2012-08-16T16:29:41Z</time>
      </trkpt>
      <trkpt lat="59.9820586" lon="17.7479564">
        <ele>45.7999</ele>
        <time>2012-08-16T16:29:42Z</time>
      </trkpt>
      <trkpt lat="59.9819985" lon="17.7478808">
        <ele>46.2806</ele>
        <time>2012-08-16T16:29:48Z</time>
      </trkpt>
      <trkpt lat="59.9819369" lon="17.7477886">
        <ele>43.8773</ele>
        <time>2012-08-16T16:29:53Z</time>
      </trkpt>
      <trkpt lat="59.9819324" lon="17.7477688">
        <ele>42.916</ele>
        <time>2012-08-16T16:29:54Z</time>
      </trkpt>
      <trkpt lat="59.9818901" lon="17.747741">
        <ele>42.916</ele>
        <time>2012-08-16T16:29:57Z</time>
      </trkpt>
      <trkpt lat="59.9818395" lon="17.7477672">
        <ele>41.474</ele>
        <time>2012-08-16T16:30:01Z</time>
      </trkpt>
      <trkpt lat="59.9817861" lon="17.7477434">
        <ele>40.9934</ele>
        <time>2012-08-16T16:30:05Z</time>
      </trkpt>
      <trkpt lat="59.9817267" lon="17.747669">
        <ele>37.6287</ele>
        <time>2012-08-16T16:30:10Z</time>
      </trkpt>
      <trkpt lat="59.981658" lon="17.7475989">
        <ele>39.0707</ele>
        <time>2012-08-16T16:30:16Z</time>
      </trkpt>
      <trkpt lat="59.9816298" lon="17.7475561">
        <ele>38.1094</ele>
        <time>2012-08-16T16:30:19Z</time>
      </trkpt>
      <trkpt lat="59.9815743" lon="17.7474156">
        <ele>35.2255</ele>
        <time>2012-08-16T16:30:25Z</time>
      </trkpt>
      <trkpt lat="59.9815546" lon="17.7473436">
        <ele>34.7449</ele>
        <time>2012-08-16T16:30:28Z</time>
      </trkpt>
      <trkpt lat="59.9815303" lon="17.7472071">
        <ele>33.7834</ele>
        <time>2012-08-16T16:30:33Z</time>
      </trkpt>
      <trkpt lat="59.9815074" lon="17.7471176">
        <ele>32.8223</ele>
        <time>2012-08-16T16:30:37Z</time>
      </trkpt>
      <trkpt lat="59.9814838" lon="17.7470352">
        <ele>33.3029</ele>
        <time>2012-08-16T16:30:40Z</time>
      </trkpt>
      <trkpt lat="59.9814545" lon="17.7468411">
        <ele>34.2642</ele>
        <time>2012-08-16T16:30:47Z</time>
      </trkpt>
      <trkpt lat="59.9814168" lon="17.7466867">
        <ele>38.5901</ele>
        <time>2012-08-16T16:30:54Z</time>
      </trkpt>
      <trkpt lat="59.9814127" lon="17.7466592">
        <ele>39.0707</ele>
        <time>2012-08-16T16:30:55Z</time>
      </trkpt>
      <trkpt lat="59.9814018" lon="17.7466027">
        <ele>40.0321</ele>
        <time>2012-08-16T16:30:57Z</time>
      </trkpt>
      <trkpt lat="59.9813816" lon="17.7464692">
        <ele>37.6287</ele>
        <time>2012-08-16T16:31:03Z</time>
      </trkpt>
      <trkpt lat="59.9813359" lon="17.7463143">
        <ele>38.1094</ele>
        <time>2012-08-16T16:31:09Z</time>
      </trkpt>
      <trkpt lat="59.981322" lon="17.7462773">
        <ele>39.0707</ele>
        <time>2012-08-16T16:31:11Z</time>
      </trkpt>
      <trkpt lat="59.9812557" lon="17.7460916">
        <ele>38.1094</ele>
        <time>2012-08-16T16:31:19Z</time>
      </trkpt>
      <trkpt lat="59.9811935" lon="17.7459045">
        <ele>35.2255</ele>
        <time>2012-08-16T16:31:27Z</time>
      </trkpt>
      <trkpt lat="59.9811288" lon="17.7457648">
        <ele>34.2642</ele>
        <time>2012-08-16T16:31:34Z</time>
      </trkpt>
      <trkpt lat="59.9810732" lon="17.7456181">
        <ele>34.2642</ele>
        <time>2012-08-16T16:31:41Z</time>
      </trkpt>
      <trkpt lat="59.9810148" lon="17.7454719">
        <ele>35.7061</ele>
        <time>2012-08-16T16:31:48Z</time>
      </trkpt>
      <trkpt lat="59.9809852" lon="17.7454057">
        <ele>36.1868</ele>
        <time>2012-08-16T16:31:52Z</time>
      </trkpt>
      <trkpt lat="59.9809481" lon="17.7453218">
        <ele>34.7449</ele>
        <time>2012-08-16T16:31:56Z</time>
      </trkpt>
      <trkpt lat="59.9809097" lon="17.7452441">
        <ele>33.3029</ele>
        <time>2012-08-16T16:32:00Z</time>
      </trkpt>
      <trkpt lat="59.9808364" lon="17.7451052">
        <ele>34.2642</ele>
        <time>2012-08-16T16:32:06Z</time>
      </trkpt>
      <trkpt lat="59.9808323" lon="17.7450825">
        <ele>34.7449</ele>
        <time>2012-08-16T16:32:07Z</time>
      </trkpt>
      <trkpt lat="59.9807526" lon="17.7449519">
        <ele>37.1481</ele>
        <time>2012-08-16T16:32:16Z</time>
      </trkpt>
      <trkpt lat="59.9807243" lon="17.7449085">
        <ele>35.2255</ele>
        <time>2012-08-16T16:32:19Z</time>
      </trkpt>
      <trkpt lat="59.9806463" lon="17.7448318">
        <ele>32.8223</ele>
        <time>2012-08-16T16:32:25Z</time>
      </trkpt>
      <trkpt lat="59.9805731" lon="17.744813">
        <ele>33.7834</ele>
        <time>2012-08-16T16:32:30Z</time>
      </trkpt>
      <trkpt lat="59.9805124" lon="17.7447137">
        <ele>34.7449</ele>
        <time>2012-08-16T16:32:35Z</time>
      </trkpt>
      <trkpt lat="59.980478" lon="17.7445949">
        <ele>34.2642</ele>
        <time>2012-08-16T16:32:40Z</time>
      </trkpt>
      <trkpt lat="59.9804775" lon="17.7444798">
        <ele>33.3029</ele>
        <time>2012-08-16T16:32:44Z</time>
      </trkpt>
      <trkpt lat="59.9804628" lon="17.7443325">
        <ele>32.8223</ele>
        <time>2012-08-16T16:32:50Z</time>
      </trkpt>
      <trkpt lat="59.9804585" lon="17.7442515">
        <ele>33.3029</ele>
        <time>2012-08-16T16:32:53Z</time>
      </trkpt>
      <trkpt lat="59.9804591" lon="17.7441916">
        <ele>33.3029</ele>
        <time>2012-08-16T16:32:55Z</time>
      </trkpt>
      <trkpt lat="59.9804413" lon="17.7440162">
        <ele>35.7061</ele>
        <time>2012-08-16T16:33:02Z</time>
      </trkpt>
      <trkpt lat="59.9804398" lon="17.7439807">
        <ele>35.7061</ele>
        <time>2012-08-16T16:33:04Z</time>
      </trkpt>
      <trkpt lat="59.9804291" lon="17.7438987">
        <ele>36.6675</ele>
        <time>2012-08-16T16:33:08Z</time>
      </trkpt>
      <trkpt lat="59.9804062" lon="17.7437453">
        <ele>38.1094</ele>
        <time>2012-08-16T16:33:14Z</time>
      </trkpt>
      <trkpt lat="59.9803873" lon="17.7436585">
        <ele>39.0707</ele>
        <time>2012-08-16T16:33:17Z</time>
      </trkpt>
      <trkpt lat="59.9803946" lon="17.7434689">
        <ele>39.5513</ele>
        <time>2012-08-16T16:33:24Z</time>
      </trkpt>
      <trkpt lat="59.9803802" lon="17.7433242">
        <ele>40.5128</ele>
        <time>2012-08-16T16:33:30Z</time>
      </trkpt>
      <trkpt lat="59.9803792" lon="17.7433005">
        <ele>40.5128</ele>
        <time>2012-08-16T16:33:31Z</time>
      </trkpt>
      <trkpt lat="59.9803513" lon="17.7431746">
        <ele>43.8773</ele>
        <time>2012-08-16T16:33:36Z</time>
      </trkpt>
      <trkpt lat="59.9803291" lon="17.74307">
        <ele>44.358</ele>
        <time>2012-08-16T16:33:40Z</time>
      </trkpt>
      <trkpt lat="59.9802902" lon="17.7429659">
        <ele>42.4354</ele>
        <time>2012-08-16T16:33:44Z</time>
      </trkpt>
      <trkpt lat="59.9802233" lon="17.7428988">
        <ele>41.9547</ele>
        <time>2012-08-16T16:33:49Z</time>
      </trkpt>
      <trkpt lat="59.980226" lon="17.7427836">
        <ele>41.9547</ele>
        <time>2012-08-16T16:33:53Z</time>
      </trkpt>
      <trkpt lat="59.980256" lon="17.7426429">
        <ele>43.3966</ele>
        <time>2012-08-16T16:34:00Z</time>
      </trkpt>
      <trkpt lat="59.9802656" lon="17.7426183">
        <ele>43.3966</ele>
        <time>2012-08-16T16:34:01Z</time>
      </trkpt>
      <trkpt lat="59.9803077" lon="17.7425033">
        <ele>41.9547</ele>
        <time>2012-08-16T16:34:07Z</time>
      </trkpt>
      <trkpt lat="59.9803128" lon="17.7424188">
        <ele>37.6287</ele>
        <time>2012-08-16T16:34:12Z</time>
      </trkpt>
      <trkpt lat="59.9802856" lon="17.7423044">
        <ele>39.5513</ele>
        <time>2012-08-16T16:34:19Z</time>
      </trkpt>
      <trkpt lat="59.9802756" lon="17.7422325">
        <ele>38.5901</ele>
        <time>2012-08-16T16:34:23Z</time>
      </trkpt>
      <trkpt lat="59.9802746" lon="17.7421682">
        <ele>37.1481</ele>
        <time>2012-08-16T16:34:25Z</time>
      </trkpt>
      <trkpt lat="59.9802509" lon="17.7421049">
        <ele>36.6675</ele>
        <time>2012-08-16T16:34:29Z</time>
      </trkpt>
      <trkpt lat="59.9801819" lon="17.7420237">
        <ele>32.8223</ele>
        <time>2012-08-16T16:34:34Z</time>
      </trkpt>
      <trkpt lat="59.9801037" lon="17.7419734">
        <ele>31.8607</ele>
        <time>2012-08-16T16:34:40Z</time>
      </trkpt>
      <trkpt lat="59.9800461" lon="17.7419387">
        <ele>34.2642</ele>
        <time>2012-08-16T16:34:44Z</time>
      </trkpt>
      <trkpt lat="59.9799866" lon="17.7418843">
        <ele>33.7834</ele>
        <time>2012-08-16T16:34:48Z</time>
      </trkpt>
      <trkpt lat="59.9799487" lon="17.741854">
        <ele>32.8223</ele>
        <time>2012-08-16T16:34:50Z</time>
      </trkpt>
      <trkpt lat="59.9799072" lon="17.7418066">
        <ele>31.3801</ele>
        <time>2012-08-16T16:34:55Z</time>
      </trkpt>
      <trkpt lat="59.9798794" lon="17.7417516">
        <ele>31.3801</ele>
        <time>2012-08-16T16:34:59Z</time>
      </trkpt>
      <trkpt lat="59.979836" lon="17.7417344">
        <ele>35.2255</ele>
        <time>2012-08-16T16:35:06Z</time>
      </trkpt>
      <trkpt lat="59.9798044" lon="17.7417165">
        <ele>40.0321</ele>
        <time>2012-08-16T16:35:11Z</time>
      </trkpt>
      <trkpt lat="59.9797716" lon="17.7416475">
        <ele>40.9934</ele>
        <time>2012-08-16T16:35:15Z</time>
      </trkpt>
      <trkpt lat="59.9797067" lon="17.7414496">
        <ele>40.9934</ele>
        <time>2012-08-16T16:35:23Z</time>
      </trkpt>
      <trkpt lat="59.9796922" lon="17.7413565">
        <ele>41.474</ele>
        <time>2012-08-16T16:35:27Z</time>
      </trkpt>
      <trkpt lat="59.9796751" lon="17.7411996">
        <ele>39.0707</ele>
        <time>2012-08-16T16:35:33Z</time>
      </trkpt>
      <trkpt lat="59.9796661" lon="17.7410642">
        <ele>35.2255</ele>
        <time>2012-08-16T16:35:38Z</time>
      </trkpt>
      <trkpt lat="59.9796499" lon="17.7410306">
        <ele>33.7834</ele>
        <time>2012-08-16T16:35:40Z</time>
      </trkpt>
      <trkpt lat="59.9795823" lon="17.7410055">
        <ele>33.3029</ele>
        <time>2012-08-16T16:35:46Z</time>
      </trkpt>
      <trkpt lat="59.9795226" lon="17.7409701">
        <ele>33.7834</ele>
        <time>2012-08-16T16:35:50Z</time>
      </trkpt>
      <trkpt lat="59.9794223" lon="17.740866">
        <ele>33.3029</ele>
        <time>2012-08-16T16:35:58Z</time>
      </trkpt>
      <trkpt lat="59.9793622" lon="17.7407036">
        <ele>31.8607</ele>
        <time>2012-08-16T16:36:05Z</time>
      </trkpt>
      <trkpt lat="59.9793168" lon="17.7405633">
        <ele>33.3029</ele>
        <time>2012-08-16T16:36:11Z</time>
      </trkpt>
      <trkpt lat="59.9792474" lon="17.7403578">
        <ele>34.7449</ele>
        <time>2012-08-16T16:36:19Z</time>
      </trkpt>
      <trkpt lat="59.9792152" lon="17.7401671">
        <ele>35.2255</ele>
        <time>2012-08-16T16:36:26Z</time>
      </trkpt>
      <trkpt lat="59.9791665" lon="17.7399794">
        <ele>34.7449</ele>
        <time>2012-08-16T16:36:34Z</time>
      </trkpt>
      <trkpt lat="59.9791327" lon="17.7397365">
        <ele>33.3029</ele>
        <time>2012-08-16T16:36:43Z</time>
      </trkpt>
      <trkpt lat="59.9791169" lon="17.7396687">
        <ele>33.7834</ele>
        <time>2012-08-16T16:36:46Z</time>
      </trkpt>
      <trkpt lat="59.9790507" lon="17.7396136">
        <ele>32.8223</ele>
        <time>2012-08-16T16:36:53Z</time>
      </trkpt>
      <trkpt lat="59.9789899" lon="17.7395786">
        <ele>31.3801</ele>
        <time>2012-08-16T16:36:58Z</time>
      </trkpt>
      <trkpt lat="59.9789766" lon="17.7395365">
        <ele>30.4188</ele>
        <time>2012-08-16T16:37:00Z</time>
      </trkpt>
    </trkseg>
  </trk>
</gpx>